<?xml version="1.0" encoding="UTF-8" standalone="no" ?>
<gpx xmlns="http://www.topografix.com/GPX/1/1" xmlns:xsi="http://www.w3.org/2001/XMLSchema-instance" xsi:schemaLocation="http://www.topografix.com/GPX/1/1 http://www.topografix.com/GPX/1/1/gpx.xsd" version="1.1" creator="VisuGPX - https://www.visugpx.com">
  <metadata>
    <name>Bois de Bernis</name>
    <desc><![CDATA[Sortie au départ de Bernis en passant par les bois de Bernis et de Boissières]]></desc>
  </metadata>
  <trk>
    <name><![CDATA[Bois de Bernis_1]]></name>
    <trkseg>
      <trkpt lat="43.77113" lon="4.2867">
        <ele>25</ele>
        <time>2015-01-03T13:09:16Z</time>
      </trkpt>
      <trkpt lat="43.77113" lon="4.2867">
        <ele>79</ele>
        <time>2015-01-03T13:09:17Z</time>
      </trkpt>
      <trkpt lat="43.77103" lon="4.28642">
        <ele>70</ele>
        <time>2015-01-03T13:10:13Z</time>
      </trkpt>
      <trkpt lat="43.77093" lon="4.28609">
        <ele>71</ele>
        <time>2015-01-03T13:10:23Z</time>
      </trkpt>
      <trkpt lat="43.77102" lon="4.28595">
        <ele>70</ele>
        <time>2015-01-03T13:10:29Z</time>
      </trkpt>
      <trkpt lat="43.77119" lon="4.28578">
        <ele>69</ele>
        <time>2015-01-03T13:10:37Z</time>
      </trkpt>
      <trkpt lat="43.77137" lon="4.2856">
        <ele>70</ele>
        <time>2015-01-03T13:10:45Z</time>
      </trkpt>
      <trkpt lat="43.77155" lon="4.28542">
        <ele>69</ele>
        <time>2015-01-03T13:10:53Z</time>
      </trkpt>
      <trkpt lat="43.77173" lon="4.28525">
        <ele>69</ele>
        <time>2015-01-03T13:11:00Z</time>
      </trkpt>
      <trkpt lat="43.77191" lon="4.2851">
        <ele>67</ele>
        <time>2015-01-03T13:11:06Z</time>
      </trkpt>
      <trkpt lat="43.77213" lon="4.28495">
        <ele>68</ele>
        <time>2015-01-03T13:11:13Z</time>
      </trkpt>
      <trkpt lat="43.77239" lon="4.28481">
        <ele>68</ele>
        <time>2015-01-03T13:11:20Z</time>
      </trkpt>
      <trkpt lat="43.77264" lon="4.28468">
        <ele>67</ele>
        <time>2015-01-03T13:11:27Z</time>
      </trkpt>
      <trkpt lat="43.77283" lon="4.28459">
        <ele>67</ele>
        <time>2015-01-03T13:11:32Z</time>
      </trkpt>
      <trkpt lat="43.77308" lon="4.28451">
        <ele>68</ele>
        <time>2015-01-03T13:11:38Z</time>
      </trkpt>
      <trkpt lat="43.77334" lon="4.28456">
        <ele>63</ele>
        <time>2015-01-03T13:11:44Z</time>
      </trkpt>
      <trkpt lat="43.77359" lon="4.28455">
        <ele>64</ele>
        <time>2015-01-03T13:11:50Z</time>
      </trkpt>
      <trkpt lat="43.77371" lon="4.28455">
        <ele>66</ele>
        <time>2015-01-03T13:11:56Z</time>
      </trkpt>
      <trkpt lat="43.77371" lon="4.28455">
        <ele>66</ele>
        <time>2015-01-03T13:12:04Z</time>
      </trkpt>
      <trkpt lat="43.77371" lon="4.28455">
        <ele>66</ele>
        <time>2015-01-03T13:12:05Z</time>
      </trkpt>
      <trkpt lat="43.77389" lon="4.28441">
        <ele>70</ele>
        <time>2015-01-03T13:13:12Z</time>
      </trkpt>
      <trkpt lat="43.77421" lon="4.28455">
        <ele>72</ele>
        <time>2015-01-03T13:13:20Z</time>
      </trkpt>
      <trkpt lat="43.77443" lon="4.28461">
        <ele>72</ele>
        <time>2015-01-03T13:13:26Z</time>
      </trkpt>
      <trkpt lat="43.77463" lon="4.28454">
        <ele>77</ele>
        <time>2015-01-03T13:13:32Z</time>
      </trkpt>
      <trkpt lat="43.77477" lon="4.28436">
        <ele>76</ele>
        <time>2015-01-03T13:13:37Z</time>
      </trkpt>
      <trkpt lat="43.77492" lon="4.2841">
        <ele>79</ele>
        <time>2015-01-03T13:13:43Z</time>
      </trkpt>
      <trkpt lat="43.77508" lon="4.28382">
        <ele>81</ele>
        <time>2015-01-03T13:13:49Z</time>
      </trkpt>
      <trkpt lat="43.77527" lon="4.28354">
        <ele>81</ele>
        <time>2015-01-03T13:13:55Z</time>
      </trkpt>
      <trkpt lat="43.77548" lon="4.28322">
        <ele>80</ele>
        <time>2015-01-03T13:14:00Z</time>
      </trkpt>
      <trkpt lat="43.77579" lon="4.28285">
        <ele>81</ele>
        <time>2015-01-03T13:14:07Z</time>
      </trkpt>
      <trkpt lat="43.77611" lon="4.2826">
        <ele>74</ele>
        <time>2015-01-03T13:14:13Z</time>
      </trkpt>
      <trkpt lat="43.77626" lon="4.28254">
        <ele>76</ele>
        <time>2015-01-03T13:14:16Z</time>
      </trkpt>
      <trkpt lat="43.77649" lon="4.28247">
        <ele>73</ele>
        <time>2015-01-03T13:14:21Z</time>
      </trkpt>
      <trkpt lat="43.77672" lon="4.28239">
        <ele>74</ele>
        <time>2015-01-03T13:14:26Z</time>
      </trkpt>
      <trkpt lat="43.77702" lon="4.28228">
        <ele>73</ele>
        <time>2015-01-03T13:14:32Z</time>
      </trkpt>
      <trkpt lat="43.77715" lon="4.28223">
        <ele>74</ele>
        <time>2015-01-03T13:14:35Z</time>
      </trkpt>
      <trkpt lat="43.77745" lon="4.28199">
        <ele>72</ele>
        <time>2015-01-03T13:14:42Z</time>
      </trkpt>
      <trkpt lat="43.77764" lon="4.28164">
        <ele>73</ele>
        <time>2015-01-03T13:14:48Z</time>
      </trkpt>
      <trkpt lat="43.77783" lon="4.2813">
        <ele>72</ele>
        <time>2015-01-03T13:14:54Z</time>
      </trkpt>
      <trkpt lat="43.77793" lon="4.28107">
        <ele>73</ele>
        <time>2015-01-03T13:14:58Z</time>
      </trkpt>
      <trkpt lat="43.77807" lon="4.28071">
        <ele>73</ele>
        <time>2015-01-03T13:15:04Z</time>
      </trkpt>
      <trkpt lat="43.77816" lon="4.28034">
        <ele>76</ele>
        <time>2015-01-03T13:15:10Z</time>
      </trkpt>
      <trkpt lat="43.77821" lon="4.27997">
        <ele>77</ele>
        <time>2015-01-03T13:15:16Z</time>
      </trkpt>
      <trkpt lat="43.77816" lon="4.27953">
        <ele>80</ele>
        <time>2015-01-03T13:15:24Z</time>
      </trkpt>
      <trkpt lat="43.77806" lon="4.2792">
        <ele>79</ele>
        <time>2015-01-03T13:15:30Z</time>
      </trkpt>
      <trkpt lat="43.77805" lon="4.27913">
        <ele>82</ele>
        <time>2015-01-03T13:15:33Z</time>
      </trkpt>
      <trkpt lat="43.77804" lon="4.27911">
        <ele>81</ele>
        <time>2015-01-03T13:15:40Z</time>
      </trkpt>
      <trkpt lat="43.77802" lon="4.27887">
        <ele>89</ele>
        <time>2015-01-03T13:17:33Z</time>
      </trkpt>
      <trkpt lat="43.77794" lon="4.27858">
        <ele>93</ele>
        <time>2015-01-03T13:17:39Z</time>
      </trkpt>
      <trkpt lat="43.77786" lon="4.27837">
        <ele>90</ele>
        <time>2015-01-03T13:17:43Z</time>
      </trkpt>
      <trkpt lat="43.77777" lon="4.27805">
        <ele>90</ele>
        <time>2015-01-03T13:17:49Z</time>
      </trkpt>
      <trkpt lat="43.77777" lon="4.27767">
        <ele>87</ele>
        <time>2015-01-03T13:17:56Z</time>
      </trkpt>
      <trkpt lat="43.77782" lon="4.27734">
        <ele>87</ele>
        <time>2015-01-03T13:18:03Z</time>
      </trkpt>
      <trkpt lat="43.77785" lon="4.27698">
        <ele>89</ele>
        <time>2015-01-03T13:18:10Z</time>
      </trkpt>
      <trkpt lat="43.77788" lon="4.27682">
        <ele>89</ele>
        <time>2015-01-03T13:18:13Z</time>
      </trkpt>
      <trkpt lat="43.77805" lon="4.27649">
        <ele>90</ele>
        <time>2015-01-03T13:18:20Z</time>
      </trkpt>
      <trkpt lat="43.77816" lon="4.2762">
        <ele>90</ele>
        <time>2015-01-03T13:18:26Z</time>
      </trkpt>
      <trkpt lat="43.77826" lon="4.27598">
        <ele>90</ele>
        <time>2015-01-03T13:18:31Z</time>
      </trkpt>
      <trkpt lat="43.77843" lon="4.27572">
        <ele>90</ele>
        <time>2015-01-03T13:18:38Z</time>
      </trkpt>
      <trkpt lat="43.7785" lon="4.27562">
        <ele>90</ele>
        <time>2015-01-03T13:18:41Z</time>
      </trkpt>
      <trkpt lat="43.77852" lon="4.27547">
        <ele>90</ele>
        <time>2015-01-03T13:18:50Z</time>
      </trkpt>
      <trkpt lat="43.77878" lon="4.27498">
        <ele>93</ele>
        <time>2015-01-03T13:19:05Z</time>
      </trkpt>
      <trkpt lat="43.77865" lon="4.27472">
        <ele>90</ele>
        <time>2015-01-03T13:19:12Z</time>
      </trkpt>
      <trkpt lat="43.77849" lon="4.27448">
        <ele>91</ele>
        <time>2015-01-03T13:19:19Z</time>
      </trkpt>
      <trkpt lat="43.77836" lon="4.27434">
        <ele>92</ele>
        <time>2015-01-03T13:19:24Z</time>
      </trkpt>
      <trkpt lat="43.77816" lon="4.27416">
        <ele>91</ele>
        <time>2015-01-03T13:19:32Z</time>
      </trkpt>
      <trkpt lat="43.77806" lon="4.27402">
        <ele>92</ele>
        <time>2015-01-03T13:19:37Z</time>
      </trkpt>
      <trkpt lat="43.77794" lon="4.27377">
        <ele>92</ele>
        <time>2015-01-03T13:19:44Z</time>
      </trkpt>
      <trkpt lat="43.7778" lon="4.27345">
        <ele>99</ele>
        <time>2015-01-03T13:19:52Z</time>
      </trkpt>
      <trkpt lat="43.77771" lon="4.27323">
        <ele>98</ele>
        <time>2015-01-03T13:19:59Z</time>
      </trkpt>
      <trkpt lat="43.77765" lon="4.27297">
        <ele>98</ele>
        <time>2015-01-03T13:20:06Z</time>
      </trkpt>
      <trkpt lat="43.77776" lon="4.27288">
        <ele>96</ele>
        <time>2015-01-03T13:20:11Z</time>
      </trkpt>
      <trkpt lat="43.778" lon="4.27278">
        <ele>95</ele>
        <time>2015-01-03T13:20:18Z</time>
      </trkpt>
      <trkpt lat="43.77819" lon="4.27266">
        <ele>91</ele>
        <time>2015-01-03T13:20:24Z</time>
      </trkpt>
      <trkpt lat="43.7783" lon="4.27258">
        <ele>92</ele>
        <time>2015-01-03T13:20:28Z</time>
      </trkpt>
      <trkpt lat="43.77847" lon="4.27244">
        <ele>92</ele>
        <time>2015-01-03T13:20:34Z</time>
      </trkpt>
      <trkpt lat="43.7786" lon="4.2723">
        <ele>91</ele>
        <time>2015-01-03T13:20:39Z</time>
      </trkpt>
      <trkpt lat="43.77879" lon="4.2721">
        <ele>91</ele>
        <time>2015-01-03T13:20:46Z</time>
      </trkpt>
      <trkpt lat="43.77897" lon="4.27188">
        <ele>90</ele>
        <time>2015-01-03T13:20:53Z</time>
      </trkpt>
      <trkpt lat="43.77905" lon="4.27179">
        <ele>89</ele>
        <time>2015-01-03T13:20:56Z</time>
      </trkpt>
      <trkpt lat="43.7792" lon="4.27165">
        <ele>89</ele>
        <time>2015-01-03T13:21:01Z</time>
      </trkpt>
      <trkpt lat="43.77939" lon="4.27151">
        <ele>88</ele>
        <time>2015-01-03T13:21:08Z</time>
      </trkpt>
      <trkpt lat="43.77961" lon="4.27132">
        <ele>89</ele>
        <time>2015-01-03T13:21:15Z</time>
      </trkpt>
      <trkpt lat="43.77978" lon="4.27113">
        <ele>88</ele>
        <time>2015-01-03T13:21:21Z</time>
      </trkpt>
      <trkpt lat="43.77993" lon="4.2709">
        <ele>87</ele>
        <time>2015-01-03T13:21:27Z</time>
      </trkpt>
      <trkpt lat="43.78008" lon="4.27066">
        <ele>86</ele>
        <time>2015-01-03T13:21:36Z</time>
      </trkpt>
      <trkpt lat="43.78016" lon="4.27021">
        <ele>86</ele>
        <time>2015-01-03T13:21:47Z</time>
      </trkpt>
      <trkpt lat="43.78022" lon="4.26989">
        <ele>88</ele>
        <time>2015-01-03T13:21:54Z</time>
      </trkpt>
      <trkpt lat="43.78028" lon="4.26962">
        <ele>90</ele>
        <time>2015-01-03T13:22:00Z</time>
      </trkpt>
      <trkpt lat="43.78034" lon="4.26938">
        <ele>90</ele>
        <time>2015-01-03T13:22:06Z</time>
      </trkpt>
      <trkpt lat="43.78036" lon="4.26926">
        <ele>90</ele>
        <time>2015-01-03T13:22:09Z</time>
      </trkpt>
      <trkpt lat="43.78039" lon="4.26896">
        <ele>92</ele>
        <time>2015-01-03T13:22:16Z</time>
      </trkpt>
      <trkpt lat="43.7804" lon="4.26872">
        <ele>95</ele>
        <time>2015-01-03T13:22:22Z</time>
      </trkpt>
      <trkpt lat="43.78042" lon="4.26865">
        <ele>95</ele>
        <time>2015-01-03T13:22:25Z</time>
      </trkpt>
      <trkpt lat="43.78042" lon="4.26866">
        <ele>95</ele>
        <time>2015-01-03T13:22:31Z</time>
      </trkpt>
      <trkpt lat="43.78047" lon="4.26846">
        <ele>97</ele>
        <time>2015-01-03T13:22:47Z</time>
      </trkpt>
      <trkpt lat="43.78048" lon="4.26832">
        <ele>96</ele>
        <time>2015-01-03T13:22:52Z</time>
      </trkpt>
      <trkpt lat="43.78048" lon="4.26832">
        <ele>96</ele>
        <time>2015-01-03T13:22:59Z</time>
      </trkpt>
      <trkpt lat="43.78048" lon="4.26832">
        <ele>96</ele>
        <time>2015-01-03T13:23:01Z</time>
      </trkpt>
      <trkpt lat="43.78051" lon="4.26806">
        <ele>98</ele>
        <time>2015-01-03T13:23:57Z</time>
      </trkpt>
      <trkpt lat="43.78057" lon="4.2676">
        <ele>98</ele>
        <time>2015-01-03T13:24:07Z</time>
      </trkpt>
      <trkpt lat="43.78062" lon="4.26737">
        <ele>96</ele>
        <time>2015-01-03T13:24:12Z</time>
      </trkpt>
      <trkpt lat="43.78074" lon="4.26713">
        <ele>97</ele>
        <time>2015-01-03T13:24:18Z</time>
      </trkpt>
      <trkpt lat="43.78088" lon="4.26693">
        <ele>98</ele>
        <time>2015-01-03T13:24:24Z</time>
      </trkpt>
      <trkpt lat="43.78098" lon="4.26671">
        <ele>98</ele>
        <time>2015-01-03T13:24:31Z</time>
      </trkpt>
      <trkpt lat="43.78105" lon="4.26648">
        <ele>96</ele>
        <time>2015-01-03T13:24:37Z</time>
      </trkpt>
      <trkpt lat="43.78123" lon="4.26625">
        <ele>94</ele>
        <time>2015-01-03T13:24:44Z</time>
      </trkpt>
      <trkpt lat="43.78135" lon="4.26601">
        <ele>100</ele>
        <time>2015-01-03T13:24:50Z</time>
      </trkpt>
      <trkpt lat="43.7815" lon="4.26582">
        <ele>104</ele>
        <time>2015-01-03T13:24:57Z</time>
      </trkpt>
      <trkpt lat="43.78173" lon="4.26579">
        <ele>108</ele>
        <time>2015-01-03T13:25:06Z</time>
      </trkpt>
      <trkpt lat="43.7819" lon="4.26552">
        <ele>107</ele>
        <time>2015-01-03T13:25:13Z</time>
      </trkpt>
      <trkpt lat="43.78211" lon="4.26537">
        <ele>103</ele>
        <time>2015-01-03T13:25:20Z</time>
      </trkpt>
      <trkpt lat="43.78232" lon="4.26511">
        <ele>97</ele>
        <time>2015-01-03T13:25:29Z</time>
      </trkpt>
      <trkpt lat="43.78242" lon="4.2649">
        <ele>94</ele>
        <time>2015-01-03T13:25:36Z</time>
      </trkpt>
      <trkpt lat="43.78247" lon="4.2645">
        <ele>96</ele>
        <time>2015-01-03T13:25:46Z</time>
      </trkpt>
      <trkpt lat="43.78237" lon="4.26433">
        <ele>97</ele>
        <time>2015-01-03T13:25:54Z</time>
      </trkpt>
      <trkpt lat="43.7823" lon="4.26421">
        <ele>107</ele>
        <time>2015-01-03T13:26:04Z</time>
      </trkpt>
      <trkpt lat="43.78215" lon="4.26406">
        <ele>114</ele>
        <time>2015-01-03T13:26:14Z</time>
      </trkpt>
      <trkpt lat="43.78207" lon="4.26397">
        <ele>111</ele>
        <time>2015-01-03T13:26:22Z</time>
      </trkpt>
      <trkpt lat="43.78178" lon="4.2637">
        <ele>112</ele>
        <time>2015-01-03T13:26:40Z</time>
      </trkpt>
      <trkpt lat="43.78154" lon="4.26379">
        <ele>109</ele>
        <time>2015-01-03T13:26:50Z</time>
      </trkpt>
      <trkpt lat="43.78141" lon="4.2636">
        <ele>114</ele>
        <time>2015-01-03T13:26:59Z</time>
      </trkpt>
      <trkpt lat="43.78128" lon="4.26341">
        <ele>123</ele>
        <time>2015-01-03T13:27:10Z</time>
      </trkpt>
      <trkpt lat="43.78121" lon="4.26324">
        <ele>121</ele>
        <time>2015-01-03T13:27:19Z</time>
      </trkpt>
      <trkpt lat="43.78123" lon="4.26304">
        <ele>120</ele>
        <time>2015-01-03T13:27:28Z</time>
      </trkpt>
      <trkpt lat="43.78116" lon="4.26289">
        <ele>120</ele>
        <time>2015-01-03T13:27:37Z</time>
      </trkpt>
      <trkpt lat="43.78114" lon="4.26282">
        <ele>119</ele>
        <time>2015-01-03T13:27:41Z</time>
      </trkpt>
      <trkpt lat="43.78105" lon="4.26276">
        <ele>119</ele>
        <time>2015-01-03T13:27:53Z</time>
      </trkpt>
      <trkpt lat="43.7809" lon="4.2626">
        <ele>121</ele>
        <time>2015-01-03T13:28:04Z</time>
      </trkpt>
      <trkpt lat="43.78078" lon="4.26239">
        <ele>120</ele>
        <time>2015-01-03T13:28:13Z</time>
      </trkpt>
      <trkpt lat="43.78074" lon="4.26213">
        <ele>122</ele>
        <time>2015-01-03T13:28:23Z</time>
      </trkpt>
      <trkpt lat="43.78074" lon="4.26213">
        <ele>122</ele>
        <time>2015-01-03T13:28:30Z</time>
      </trkpt>
      <trkpt lat="43.78074" lon="4.26213">
        <ele>122</ele>
        <time>2015-01-03T13:28:31Z</time>
      </trkpt>
      <trkpt lat="43.78085" lon="4.26186">
        <ele>128</ele>
        <time>2015-01-03T13:33:38Z</time>
      </trkpt>
      <trkpt lat="43.78099" lon="4.26167">
        <ele>135</ele>
        <time>2015-01-03T13:33:50Z</time>
      </trkpt>
      <trkpt lat="43.78119" lon="4.26143">
        <ele>131</ele>
        <time>2015-01-03T13:34:01Z</time>
      </trkpt>
      <trkpt lat="43.78132" lon="4.26128">
        <ele>131</ele>
        <time>2015-01-03T13:34:08Z</time>
      </trkpt>
      <trkpt lat="43.78131" lon="4.26101">
        <ele>131</ele>
        <time>2015-01-03T13:34:17Z</time>
      </trkpt>
      <trkpt lat="43.78114" lon="4.26082">
        <ele>132</ele>
        <time>2015-01-03T13:34:27Z</time>
      </trkpt>
      <trkpt lat="43.78108" lon="4.26061">
        <ele>132</ele>
        <time>2015-01-03T13:34:34Z</time>
      </trkpt>
      <trkpt lat="43.7809" lon="4.26064">
        <ele>132</ele>
        <time>2015-01-03T13:34:43Z</time>
      </trkpt>
      <trkpt lat="43.78084" lon="4.26048">
        <ele>132</ele>
        <time>2015-01-03T13:34:48Z</time>
      </trkpt>
      <trkpt lat="43.7809" lon="4.26021">
        <ele>133</ele>
        <time>2015-01-03T13:34:58Z</time>
      </trkpt>
      <trkpt lat="43.78088" lon="4.25998">
        <ele>132</ele>
        <time>2015-01-03T13:35:06Z</time>
      </trkpt>
      <trkpt lat="43.78086" lon="4.25986">
        <ele>132</ele>
        <time>2015-01-03T13:35:11Z</time>
      </trkpt>
      <trkpt lat="43.78082" lon="4.25955">
        <ele>132</ele>
        <time>2015-01-03T13:35:22Z</time>
      </trkpt>
      <trkpt lat="43.78095" lon="4.25942">
        <ele>134</ele>
        <time>2015-01-03T13:35:33Z</time>
      </trkpt>
      <trkpt lat="43.78118" lon="4.25942">
        <ele>148</ele>
        <time>2015-01-03T13:35:45Z</time>
      </trkpt>
      <trkpt lat="43.78139" lon="4.25922">
        <ele>138</ele>
        <time>2015-01-03T13:35:57Z</time>
      </trkpt>
      <trkpt lat="43.78139" lon="4.25906">
        <ele>138</ele>
        <time>2015-01-03T13:36:04Z</time>
      </trkpt>
      <trkpt lat="43.7813" lon="4.25872">
        <ele>142</ele>
        <time>2015-01-03T13:36:15Z</time>
      </trkpt>
      <trkpt lat="43.78122" lon="4.25856">
        <ele>139</ele>
        <time>2015-01-03T13:36:20Z</time>
      </trkpt>
      <trkpt lat="43.78144" lon="4.25861">
        <ele>137</ele>
        <time>2015-01-03T13:36:32Z</time>
      </trkpt>
      <trkpt lat="43.78161" lon="4.25869">
        <ele>137</ele>
        <time>2015-01-03T13:36:41Z</time>
      </trkpt>
      <trkpt lat="43.78158" lon="4.25876">
        <ele>137</ele>
        <time>2015-01-03T13:36:44Z</time>
      </trkpt>
      <trkpt lat="43.78164" lon="4.25856">
        <ele>139</ele>
        <time>2015-01-03T13:36:55Z</time>
      </trkpt>
      <trkpt lat="43.7817" lon="4.25835">
        <ele>139</ele>
        <time>2015-01-03T13:37:01Z</time>
      </trkpt>
      <trkpt lat="43.78168" lon="4.2582">
        <ele>140</ele>
        <time>2015-01-03T13:37:08Z</time>
      </trkpt>
      <trkpt lat="43.78166" lon="4.25798">
        <ele>139</ele>
        <time>2015-01-03T13:37:16Z</time>
      </trkpt>
      <trkpt lat="43.78169" lon="4.25774">
        <ele>133</ele>
        <time>2015-01-03T13:37:25Z</time>
      </trkpt>
      <trkpt lat="43.78162" lon="4.25758">
        <ele>135</ele>
        <time>2015-01-03T13:37:31Z</time>
      </trkpt>
      <trkpt lat="43.78151" lon="4.25751">
        <ele>137</ele>
        <time>2015-01-03T13:37:37Z</time>
      </trkpt>
      <trkpt lat="43.7814" lon="4.25737">
        <ele>137</ele>
        <time>2015-01-03T13:37:47Z</time>
      </trkpt>
      <trkpt lat="43.78116" lon="4.25745">
        <ele>136</ele>
        <time>2015-01-03T13:37:56Z</time>
      </trkpt>
      <trkpt lat="43.78106" lon="4.25753">
        <ele>132</ele>
        <time>2015-01-03T13:38:09Z</time>
      </trkpt>
      <trkpt lat="43.78095" lon="4.25732">
        <ele>130</ele>
        <time>2015-01-03T13:38:18Z</time>
      </trkpt>
      <trkpt lat="43.7809" lon="4.257">
        <ele>127</ele>
        <time>2015-01-03T13:38:27Z</time>
      </trkpt>
      <trkpt lat="43.78078" lon="4.25695">
        <ele>128</ele>
        <time>2015-01-03T13:38:32Z</time>
      </trkpt>
      <trkpt lat="43.78062" lon="4.25686">
        <ele>130</ele>
        <time>2015-01-03T13:38:41Z</time>
      </trkpt>
      <trkpt lat="43.78061" lon="4.25663">
        <ele>130</ele>
        <time>2015-01-03T13:38:51Z</time>
      </trkpt>
      <trkpt lat="43.78074" lon="4.25654">
        <ele>134</ele>
        <time>2015-01-03T13:39:00Z</time>
      </trkpt>
      <trkpt lat="43.78087" lon="4.25628">
        <ele>134</ele>
        <time>2015-01-03T13:39:10Z</time>
      </trkpt>
      <trkpt lat="43.78093" lon="4.25609">
        <ele>134</ele>
        <time>2015-01-03T13:39:16Z</time>
      </trkpt>
      <trkpt lat="43.78092" lon="4.25591">
        <ele>132</ele>
        <time>2015-01-03T13:39:23Z</time>
      </trkpt>
      <trkpt lat="43.78075" lon="4.25556">
        <ele>130</ele>
        <time>2015-01-03T13:39:32Z</time>
      </trkpt>
      <trkpt lat="43.78066" lon="4.25533">
        <ele>125</ele>
        <time>2015-01-03T13:39:38Z</time>
      </trkpt>
      <trkpt lat="43.7806" lon="4.25493">
        <ele>128</ele>
        <time>2015-01-03T13:39:44Z</time>
      </trkpt>
      <trkpt lat="43.78055" lon="4.25465">
        <ele>126</ele>
        <time>2015-01-03T13:39:49Z</time>
      </trkpt>
      <trkpt lat="43.78042" lon="4.25443">
        <ele>129</ele>
        <time>2015-01-03T13:39:56Z</time>
      </trkpt>
      <trkpt lat="43.78023" lon="4.25425">
        <ele>134</ele>
        <time>2015-01-03T13:40:03Z</time>
      </trkpt>
      <trkpt lat="43.78014" lon="4.25402">
        <ele>135</ele>
        <time>2015-01-03T13:40:09Z</time>
      </trkpt>
      <trkpt lat="43.77996" lon="4.25375">
        <ele>133</ele>
        <time>2015-01-03T13:40:16Z</time>
      </trkpt>
      <trkpt lat="43.77978" lon="4.25359">
        <ele>134</ele>
        <time>2015-01-03T13:40:22Z</time>
      </trkpt>
      <trkpt lat="43.7795" lon="4.25357">
        <ele>131</ele>
        <time>2015-01-03T13:40:29Z</time>
      </trkpt>
      <trkpt lat="43.7794" lon="4.25329">
        <ele>128</ele>
        <time>2015-01-03T13:40:35Z</time>
      </trkpt>
      <trkpt lat="43.77935" lon="4.25309">
        <ele>125</ele>
        <time>2015-01-03T13:40:41Z</time>
      </trkpt>
      <trkpt lat="43.77924" lon="4.25239">
        <ele>120</ele>
        <time>2015-01-03T13:40:55Z</time>
      </trkpt>
      <trkpt lat="43.77916" lon="4.25223">
        <ele>117</ele>
        <time>2015-01-03T13:41:00Z</time>
      </trkpt>
      <trkpt lat="43.77915" lon="4.25197">
        <ele>117</ele>
        <time>2015-01-03T13:41:07Z</time>
      </trkpt>
      <trkpt lat="43.77914" lon="4.25162">
        <ele>116</ele>
        <time>2015-01-03T13:41:14Z</time>
      </trkpt>
      <trkpt lat="43.77921" lon="4.25139">
        <ele>116</ele>
        <time>2015-01-03T13:41:21Z</time>
      </trkpt>
      <trkpt lat="43.77912" lon="4.25123">
        <ele>120</ele>
        <time>2015-01-03T13:41:29Z</time>
      </trkpt>
      <trkpt lat="43.77879" lon="4.25127">
        <ele>112</ele>
        <time>2015-01-03T13:41:37Z</time>
      </trkpt>
      <trkpt lat="43.77847" lon="4.25138">
        <ele>117</ele>
        <time>2015-01-03T13:41:44Z</time>
      </trkpt>
      <trkpt lat="43.77827" lon="4.25152">
        <ele>116</ele>
        <time>2015-01-03T13:41:50Z</time>
      </trkpt>
      <trkpt lat="43.77812" lon="4.25162">
        <ele>117</ele>
        <time>2015-01-03T13:41:59Z</time>
      </trkpt>
      <trkpt lat="43.77806" lon="4.25155">
        <ele>118</ele>
        <time>2015-01-03T13:42:05Z</time>
      </trkpt>
      <trkpt lat="43.77792" lon="4.25166">
        <ele>113</ele>
        <time>2015-01-03T13:42:20Z</time>
      </trkpt>
      <trkpt lat="43.77769" lon="4.25178">
        <ele>108</ele>
        <time>2015-01-03T13:42:31Z</time>
      </trkpt>
      <trkpt lat="43.77749" lon="4.25186">
        <ele>111</ele>
        <time>2015-01-03T13:42:38Z</time>
      </trkpt>
      <trkpt lat="43.77714" lon="4.25216">
        <ele>108</ele>
        <time>2015-01-03T13:42:46Z</time>
      </trkpt>
      <trkpt lat="43.77688" lon="4.25228">
        <ele>103</ele>
        <time>2015-01-03T13:42:52Z</time>
      </trkpt>
      <trkpt lat="43.77666" lon="4.25246">
        <ele>102</ele>
        <time>2015-01-03T13:43:00Z</time>
      </trkpt>
      <trkpt lat="43.77645" lon="4.25252">
        <ele>103</ele>
        <time>2015-01-03T13:43:08Z</time>
      </trkpt>
      <trkpt lat="43.77626" lon="4.25265">
        <ele>105</ele>
        <time>2015-01-03T13:43:14Z</time>
      </trkpt>
      <trkpt lat="43.776" lon="4.25268">
        <ele>104</ele>
        <time>2015-01-03T13:43:20Z</time>
      </trkpt>
      <trkpt lat="43.77568" lon="4.25275">
        <ele>100</ele>
        <time>2015-01-03T13:43:27Z</time>
      </trkpt>
      <trkpt lat="43.77536" lon="4.2528">
        <ele>98</ele>
        <time>2015-01-03T13:43:33Z</time>
      </trkpt>
      <trkpt lat="43.77521" lon="4.25277">
        <ele>101</ele>
        <time>2015-01-03T13:43:37Z</time>
      </trkpt>
      <trkpt lat="43.77501" lon="4.25264">
        <ele>95</ele>
        <time>2015-01-03T13:43:44Z</time>
      </trkpt>
      <trkpt lat="43.77486" lon="4.25247">
        <ele>97</ele>
        <time>2015-01-03T13:43:49Z</time>
      </trkpt>
      <trkpt lat="43.77464" lon="4.25228">
        <ele>97</ele>
        <time>2015-01-03T13:43:55Z</time>
      </trkpt>
      <trkpt lat="43.77446" lon="4.2521">
        <ele>90</ele>
        <time>2015-01-03T13:44:00Z</time>
      </trkpt>
      <trkpt lat="43.77413" lon="4.252">
        <ele>93</ele>
        <time>2015-01-03T13:44:07Z</time>
      </trkpt>
      <trkpt lat="43.77403" lon="4.2518">
        <ele>91</ele>
        <time>2015-01-03T13:44:15Z</time>
      </trkpt>
      <trkpt lat="43.77407" lon="4.25146">
        <ele>96</ele>
        <time>2015-01-03T13:44:26Z</time>
      </trkpt>
      <trkpt lat="43.77419" lon="4.25145">
        <ele>100</ele>
        <time>2015-01-03T13:44:34Z</time>
      </trkpt>
      <trkpt lat="43.77419" lon="4.25138">
        <ele>101</ele>
        <time>2015-01-03T13:44:37Z</time>
      </trkpt>
      <trkpt lat="43.77419" lon="4.25145">
        <ele>100</ele>
        <time>2015-01-03T13:44:43Z</time>
      </trkpt>
      <trkpt lat="43.77414" lon="4.25116">
        <ele>110</ele>
        <time>2015-01-03T13:45:40Z</time>
      </trkpt>
      <trkpt lat="43.7742" lon="4.25101">
        <ele>113</ele>
        <time>2015-01-03T13:45:47Z</time>
      </trkpt>
      <trkpt lat="43.77428" lon="4.2508">
        <ele>114</ele>
        <time>2015-01-03T13:45:55Z</time>
      </trkpt>
      <trkpt lat="43.77412" lon="4.25038">
        <ele>109</ele>
        <time>2015-01-03T13:46:06Z</time>
      </trkpt>
      <trkpt lat="43.77409" lon="4.25005">
        <ele>109</ele>
        <time>2015-01-03T13:46:12Z</time>
      </trkpt>
      <trkpt lat="43.77396" lon="4.24992">
        <ele>106</ele>
        <time>2015-01-03T13:46:18Z</time>
      </trkpt>
      <trkpt lat="43.77382" lon="4.24965">
        <ele>103</ele>
        <time>2015-01-03T13:46:27Z</time>
      </trkpt>
      <trkpt lat="43.77368" lon="4.24946">
        <ele>101</ele>
        <time>2015-01-03T13:46:35Z</time>
      </trkpt>
      <trkpt lat="43.77361" lon="4.2493">
        <ele>97</ele>
        <time>2015-01-03T13:46:43Z</time>
      </trkpt>
      <trkpt lat="43.7735" lon="4.24891">
        <ele>99</ele>
        <time>2015-01-03T13:46:54Z</time>
      </trkpt>
      <trkpt lat="43.77365" lon="4.24876">
        <ele>99</ele>
        <time>2015-01-03T13:47:02Z</time>
      </trkpt>
      <trkpt lat="43.77381" lon="4.24858">
        <ele>106</ele>
        <time>2015-01-03T13:47:08Z</time>
      </trkpt>
      <trkpt lat="43.774" lon="4.24848">
        <ele>108</ele>
        <time>2015-01-03T13:47:15Z</time>
      </trkpt>
      <trkpt lat="43.77415" lon="4.24839">
        <ele>108</ele>
        <time>2015-01-03T13:47:21Z</time>
      </trkpt>
      <trkpt lat="43.7743" lon="4.24841">
        <ele>111</ele>
        <time>2015-01-03T13:47:28Z</time>
      </trkpt>
      <trkpt lat="43.77449" lon="4.24839">
        <ele>116</ele>
        <time>2015-01-03T13:47:36Z</time>
      </trkpt>
      <trkpt lat="43.77472" lon="4.24829">
        <ele>117</ele>
        <time>2015-01-03T13:47:44Z</time>
      </trkpt>
      <trkpt lat="43.77494" lon="4.24806">
        <ele>113</ele>
        <time>2015-01-03T13:47:53Z</time>
      </trkpt>
      <trkpt lat="43.77514" lon="4.24797">
        <ele>113</ele>
        <time>2015-01-03T13:48:02Z</time>
      </trkpt>
      <trkpt lat="43.77529" lon="4.24796">
        <ele>114</ele>
        <time>2015-01-03T13:48:08Z</time>
      </trkpt>
      <trkpt lat="43.77551" lon="4.24793">
        <ele>112</ele>
        <time>2015-01-03T13:48:18Z</time>
      </trkpt>
      <trkpt lat="43.77573" lon="4.24795">
        <ele>115</ele>
        <time>2015-01-03T13:48:28Z</time>
      </trkpt>
      <trkpt lat="43.77591" lon="4.24789">
        <ele>113</ele>
        <time>2015-01-03T13:48:37Z</time>
      </trkpt>
      <trkpt lat="43.77611" lon="4.2478">
        <ele>121</ele>
        <time>2015-01-03T13:48:45Z</time>
      </trkpt>
      <trkpt lat="43.77619" lon="4.24763">
        <ele>119</ele>
        <time>2015-01-03T13:48:51Z</time>
      </trkpt>
      <trkpt lat="43.77631" lon="4.24744">
        <ele>118</ele>
        <time>2015-01-03T13:48:58Z</time>
      </trkpt>
      <trkpt lat="43.77635" lon="4.24719">
        <ele>113</ele>
        <time>2015-01-03T13:49:07Z</time>
      </trkpt>
      <trkpt lat="43.77635" lon="4.24693">
        <ele>114</ele>
        <time>2015-01-03T13:49:15Z</time>
      </trkpt>
      <trkpt lat="43.77637" lon="4.24666">
        <ele>119</ele>
        <time>2015-01-03T13:49:25Z</time>
      </trkpt>
      <trkpt lat="43.77645" lon="4.24637">
        <ele>120</ele>
        <time>2015-01-03T13:49:34Z</time>
      </trkpt>
      <trkpt lat="43.77648" lon="4.24611">
        <ele>122</ele>
        <time>2015-01-03T13:49:42Z</time>
      </trkpt>
      <trkpt lat="43.77653" lon="4.24588">
        <ele>124</ele>
        <time>2015-01-03T13:49:50Z</time>
      </trkpt>
      <trkpt lat="43.77657" lon="4.24577">
        <ele>124</ele>
        <time>2015-01-03T13:49:57Z</time>
      </trkpt>
      <trkpt lat="43.77656" lon="4.24556">
        <ele>125</ele>
        <time>2015-01-03T13:50:06Z</time>
      </trkpt>
      <trkpt lat="43.77647" lon="4.24535">
        <ele>131</ele>
        <time>2015-01-03T13:50:20Z</time>
      </trkpt>
      <trkpt lat="43.77631" lon="4.24513">
        <ele>131</ele>
        <time>2015-01-03T13:50:31Z</time>
      </trkpt>
      <trkpt lat="43.77618" lon="4.24503">
        <ele>133</ele>
        <time>2015-01-03T13:50:38Z</time>
      </trkpt>
      <trkpt lat="43.77606" lon="4.24489">
        <ele>132</ele>
        <time>2015-01-03T13:50:45Z</time>
      </trkpt>
      <trkpt lat="43.77591" lon="4.24481">
        <ele>131</ele>
        <time>2015-01-03T13:50:52Z</time>
      </trkpt>
      <trkpt lat="43.77575" lon="4.24475">
        <ele>132</ele>
        <time>2015-01-03T13:50:59Z</time>
      </trkpt>
      <trkpt lat="43.77562" lon="4.2447">
        <ele>132</ele>
        <time>2015-01-03T13:51:05Z</time>
      </trkpt>
      <trkpt lat="43.77544" lon="4.24462">
        <ele>133</ele>
        <time>2015-01-03T13:51:13Z</time>
      </trkpt>
      <trkpt lat="43.77538" lon="4.24457">
        <ele>133</ele>
        <time>2015-01-03T13:51:16Z</time>
      </trkpt>
      <trkpt lat="43.77521" lon="4.24446">
        <ele>134</ele>
        <time>2015-01-03T13:51:24Z</time>
      </trkpt>
      <trkpt lat="43.77511" lon="4.2444">
        <ele>133</ele>
        <time>2015-01-03T13:51:28Z</time>
      </trkpt>
      <trkpt lat="43.77489" lon="4.24426">
        <ele>132</ele>
        <time>2015-01-03T13:51:37Z</time>
      </trkpt>
      <trkpt lat="43.77463" lon="4.24419">
        <ele>131</ele>
        <time>2015-01-03T13:51:47Z</time>
      </trkpt>
      <trkpt lat="43.77456" lon="4.24451">
        <ele>128</ele>
        <time>2015-01-03T13:51:56Z</time>
      </trkpt>
      <trkpt lat="43.77441" lon="4.24481">
        <ele>130</ele>
        <time>2015-01-03T13:52:05Z</time>
      </trkpt>
      <trkpt lat="43.7743" lon="4.24509">
        <ele>126</ele>
        <time>2015-01-03T13:52:13Z</time>
      </trkpt>
      <trkpt lat="43.77418" lon="4.2452">
        <ele>129</ele>
        <time>2015-01-03T13:52:22Z</time>
      </trkpt>
      <trkpt lat="43.774" lon="4.24507">
        <ele>127</ele>
        <time>2015-01-03T13:52:29Z</time>
      </trkpt>
      <trkpt lat="43.7738" lon="4.24492">
        <ele>128</ele>
        <time>2015-01-03T13:52:35Z</time>
      </trkpt>
      <trkpt lat="43.77361" lon="4.2448">
        <ele>130</ele>
        <time>2015-01-03T13:52:40Z</time>
      </trkpt>
      <trkpt lat="43.77345" lon="4.24469">
        <ele>127</ele>
        <time>2015-01-03T13:52:45Z</time>
      </trkpt>
      <trkpt lat="43.77323" lon="4.2446">
        <ele>130</ele>
        <time>2015-01-03T13:52:50Z</time>
      </trkpt>
      <trkpt lat="43.77294" lon="4.24457">
        <ele>126</ele>
        <time>2015-01-03T13:52:57Z</time>
      </trkpt>
      <trkpt lat="43.77267" lon="4.24455">
        <ele>126</ele>
        <time>2015-01-03T13:53:02Z</time>
      </trkpt>
      <trkpt lat="43.7723" lon="4.24453">
        <ele>128</ele>
        <time>2015-01-03T13:53:09Z</time>
      </trkpt>
      <trkpt lat="43.7719" lon="4.24463">
        <ele>128</ele>
        <time>2015-01-03T13:53:17Z</time>
      </trkpt>
      <trkpt lat="43.77166" lon="4.24478">
        <ele>123</ele>
        <time>2015-01-03T13:53:23Z</time>
      </trkpt>
      <trkpt lat="43.77137" lon="4.24498">
        <ele>118</ele>
        <time>2015-01-03T13:53:30Z</time>
      </trkpt>
      <trkpt lat="43.77122" lon="4.24521">
        <ele>119</ele>
        <time>2015-01-03T13:53:35Z</time>
      </trkpt>
      <trkpt lat="43.77112" lon="4.24539">
        <ele>120</ele>
        <time>2015-01-03T13:53:38Z</time>
      </trkpt>
      <trkpt lat="43.77097" lon="4.24576">
        <ele>119</ele>
        <time>2015-01-03T13:53:43Z</time>
      </trkpt>
      <trkpt lat="43.77079" lon="4.24606">
        <ele>119</ele>
        <time>2015-01-03T13:53:48Z</time>
      </trkpt>
      <trkpt lat="43.77061" lon="4.24638">
        <ele>119</ele>
        <time>2015-01-03T13:53:53Z</time>
      </trkpt>
      <trkpt lat="43.77051" lon="4.2468">
        <ele>114</ele>
        <time>2015-01-03T13:53:58Z</time>
      </trkpt>
      <trkpt lat="43.77048" lon="4.24738">
        <ele>111</ele>
        <time>2015-01-03T13:54:04Z</time>
      </trkpt>
      <trkpt lat="43.77036" lon="4.24772">
        <ele>108</ele>
        <time>2015-01-03T13:54:09Z</time>
      </trkpt>
      <trkpt lat="43.77018" lon="4.2481">
        <ele>105</ele>
        <time>2015-01-03T13:54:16Z</time>
      </trkpt>
      <trkpt lat="43.76984" lon="4.24808">
        <ele>104</ele>
        <time>2015-01-03T13:54:24Z</time>
      </trkpt>
      <trkpt lat="43.76961" lon="4.248">
        <ele>106</ele>
        <time>2015-01-03T13:54:29Z</time>
      </trkpt>
      <trkpt lat="43.76943" lon="4.24804">
        <ele>107</ele>
        <time>2015-01-03T13:54:35Z</time>
      </trkpt>
      <trkpt lat="43.76935" lon="4.24762">
        <ele>104</ele>
        <time>2015-01-03T13:54:45Z</time>
      </trkpt>
      <trkpt lat="43.76931" lon="4.2473">
        <ele>103</ele>
        <time>2015-01-03T13:54:52Z</time>
      </trkpt>
      <trkpt lat="43.76931" lon="4.24698">
        <ele>105</ele>
        <time>2015-01-03T13:54:59Z</time>
      </trkpt>
      <trkpt lat="43.76931" lon="4.24676">
        <ele>107</ele>
        <time>2015-01-03T13:55:07Z</time>
      </trkpt>
      <trkpt lat="43.76928" lon="4.24642">
        <ele>106</ele>
        <time>2015-01-03T13:55:15Z</time>
      </trkpt>
      <trkpt lat="43.76935" lon="4.24616">
        <ele>105</ele>
        <time>2015-01-03T13:55:22Z</time>
      </trkpt>
      <trkpt lat="43.76942" lon="4.24581">
        <ele>106</ele>
        <time>2015-01-03T13:55:31Z</time>
      </trkpt>
      <trkpt lat="43.76941" lon="4.24547">
        <ele>106</ele>
        <time>2015-01-03T13:55:39Z</time>
      </trkpt>
      <trkpt lat="43.76945" lon="4.24526">
        <ele>106</ele>
        <time>2015-01-03T13:55:44Z</time>
      </trkpt>
      <trkpt lat="43.76949" lon="4.24504">
        <ele>103</ele>
        <time>2015-01-03T13:55:49Z</time>
      </trkpt>
      <trkpt lat="43.76954" lon="4.24471">
        <ele>103</ele>
        <time>2015-01-03T13:55:56Z</time>
      </trkpt>
      <trkpt lat="43.76964" lon="4.24463">
        <ele>107</ele>
        <time>2015-01-03T13:56:06Z</time>
      </trkpt>
      <trkpt lat="43.7697" lon="4.24485">
        <ele>108</ele>
        <time>2015-01-03T13:56:13Z</time>
      </trkpt>
      <trkpt lat="43.76969" lon="4.24513">
        <ele>109</ele>
        <time>2015-01-03T13:56:23Z</time>
      </trkpt>
      <trkpt lat="43.7697" lon="4.24516">
        <ele>111</ele>
        <time>2015-01-03T13:56:26Z</time>
      </trkpt>
      <trkpt lat="43.76969" lon="4.24513">
        <ele>109</ele>
        <time>2015-01-03T13:56:34Z</time>
      </trkpt>
      <trkpt lat="43.7697" lon="4.24484">
        <ele>111</ele>
        <time>2015-01-03T13:56:42Z</time>
      </trkpt>
      <trkpt lat="43.76962" lon="4.24457">
        <ele>106</ele>
        <time>2015-01-03T13:56:48Z</time>
      </trkpt>
      <trkpt lat="43.76953" lon="4.24456">
        <ele>104</ele>
        <time>2015-01-03T13:56:55Z</time>
      </trkpt>
      <trkpt lat="43.76944" lon="4.24489">
        <ele>104</ele>
        <time>2015-01-03T13:57:06Z</time>
      </trkpt>
      <trkpt lat="43.7694" lon="4.24515">
        <ele>103</ele>
        <time>2015-01-03T13:57:13Z</time>
      </trkpt>
      <trkpt lat="43.76935" lon="4.2455">
        <ele>103</ele>
        <time>2015-01-03T13:57:22Z</time>
      </trkpt>
      <trkpt lat="43.76936" lon="4.2457">
        <ele>104</ele>
        <time>2015-01-03T13:57:27Z</time>
      </trkpt>
      <trkpt lat="43.76935" lon="4.24595">
        <ele>102</ele>
        <time>2015-01-03T13:57:33Z</time>
      </trkpt>
      <trkpt lat="43.76927" lon="4.24624">
        <ele>100</ele>
        <time>2015-01-03T13:57:40Z</time>
      </trkpt>
      <trkpt lat="43.76926" lon="4.24657">
        <ele>99</ele>
        <time>2015-01-03T13:57:47Z</time>
      </trkpt>
      <trkpt lat="43.76927" lon="4.24686">
        <ele>98</ele>
        <time>2015-01-03T13:57:53Z</time>
      </trkpt>
      <trkpt lat="43.76932" lon="4.24703">
        <ele>102</ele>
        <time>2015-01-03T13:58:00Z</time>
      </trkpt>
      <trkpt lat="43.76952" lon="4.2468">
        <ele>104</ele>
        <time>2015-01-03T13:58:16Z</time>
      </trkpt>
      <trkpt lat="43.76956" lon="4.24675">
        <ele>104</ele>
        <time>2015-01-03T13:58:19Z</time>
      </trkpt>
      <trkpt lat="43.76964" lon="4.24677">
        <ele>104</ele>
        <time>2015-01-03T13:58:32Z</time>
      </trkpt>
      <trkpt lat="43.76987" lon="4.2466">
        <ele>106</ele>
        <time>2015-01-03T13:58:47Z</time>
      </trkpt>
      <trkpt lat="43.76992" lon="4.24646">
        <ele>108</ele>
        <time>2015-01-03T13:58:53Z</time>
      </trkpt>
      <trkpt lat="43.76996" lon="4.24644">
        <ele>114</ele>
        <time>2015-01-03T13:59:02Z</time>
      </trkpt>
      <trkpt lat="43.7701" lon="4.24633">
        <ele>117</ele>
        <time>2015-01-03T14:04:20Z</time>
      </trkpt>
      <trkpt lat="43.77024" lon="4.24635">
        <ele>118</ele>
        <time>2015-01-03T14:04:27Z</time>
      </trkpt>
      <trkpt lat="43.77041" lon="4.24639">
        <ele>121</ele>
        <time>2015-01-03T14:04:37Z</time>
      </trkpt>
      <trkpt lat="43.7706" lon="4.24631">
        <ele>120</ele>
        <time>2015-01-03T14:04:49Z</time>
      </trkpt>
      <trkpt lat="43.77075" lon="4.2462">
        <ele>123</ele>
        <time>2015-01-03T14:04:56Z</time>
      </trkpt>
      <trkpt lat="43.77088" lon="4.246">
        <ele>123</ele>
        <time>2015-01-03T14:05:03Z</time>
      </trkpt>
      <trkpt lat="43.77104" lon="4.2457">
        <ele>123</ele>
        <time>2015-01-03T14:05:12Z</time>
      </trkpt>
      <trkpt lat="43.77116" lon="4.24541">
        <ele>121</ele>
        <time>2015-01-03T14:05:20Z</time>
      </trkpt>
      <trkpt lat="43.77128" lon="4.2452">
        <ele>121</ele>
        <time>2015-01-03T14:05:28Z</time>
      </trkpt>
      <trkpt lat="43.77143" lon="4.24501">
        <ele>127</ele>
        <time>2015-01-03T14:05:36Z</time>
      </trkpt>
      <trkpt lat="43.77163" lon="4.24487">
        <ele>129</ele>
        <time>2015-01-03T14:05:45Z</time>
      </trkpt>
      <trkpt lat="43.77178" lon="4.24477">
        <ele>127</ele>
        <time>2015-01-03T14:05:51Z</time>
      </trkpt>
      <trkpt lat="43.77201" lon="4.24464">
        <ele>125</ele>
        <time>2015-01-03T14:06:00Z</time>
      </trkpt>
      <trkpt lat="43.77222" lon="4.24463">
        <ele>124</ele>
        <time>2015-01-03T14:06:06Z</time>
      </trkpt>
      <trkpt lat="43.77237" lon="4.24461">
        <ele>127</ele>
        <time>2015-01-03T14:06:11Z</time>
      </trkpt>
      <trkpt lat="43.77247" lon="4.2446">
        <ele>127</ele>
        <time>2015-01-03T14:06:14Z</time>
      </trkpt>
      <trkpt lat="43.77265" lon="4.24465">
        <ele>128</ele>
        <time>2015-01-03T14:06:20Z</time>
      </trkpt>
      <trkpt lat="43.77291" lon="4.24467">
        <ele>125</ele>
        <time>2015-01-03T14:06:28Z</time>
      </trkpt>
      <trkpt lat="43.77317" lon="4.24467">
        <ele>121</ele>
        <time>2015-01-03T14:06:35Z</time>
      </trkpt>
      <trkpt lat="43.77334" lon="4.24475">
        <ele>123</ele>
        <time>2015-01-03T14:06:41Z</time>
      </trkpt>
      <trkpt lat="43.77349" lon="4.24481">
        <ele>126</ele>
        <time>2015-01-03T14:06:46Z</time>
      </trkpt>
      <trkpt lat="43.77367" lon="4.24493">
        <ele>123</ele>
        <time>2015-01-03T14:06:53Z</time>
      </trkpt>
      <trkpt lat="43.77392" lon="4.24508">
        <ele>126</ele>
        <time>2015-01-03T14:07:01Z</time>
      </trkpt>
      <trkpt lat="43.77415" lon="4.24523">
        <ele>128</ele>
        <time>2015-01-03T14:07:08Z</time>
      </trkpt>
      <trkpt lat="43.77432" lon="4.24528">
        <ele>128</ele>
        <time>2015-01-03T14:07:13Z</time>
      </trkpt>
      <trkpt lat="43.77443" lon="4.24491">
        <ele>128</ele>
        <time>2015-01-03T14:07:20Z</time>
      </trkpt>
      <trkpt lat="43.77455" lon="4.24463">
        <ele>127</ele>
        <time>2015-01-03T14:07:25Z</time>
      </trkpt>
      <trkpt lat="43.77465" lon="4.24446">
        <ele>126</ele>
        <time>2015-01-03T14:07:28Z</time>
      </trkpt>
      <trkpt lat="43.77467" lon="4.24419">
        <ele>125</ele>
        <time>2015-01-03T14:07:34Z</time>
      </trkpt>
      <trkpt lat="43.77454" lon="4.24401">
        <ele>126</ele>
        <time>2015-01-03T14:07:40Z</time>
      </trkpt>
      <trkpt lat="43.77435" lon="4.24386">
        <ele>125</ele>
        <time>2015-01-03T14:07:46Z</time>
      </trkpt>
      <trkpt lat="43.77414" lon="4.24368">
        <ele>126</ele>
        <time>2015-01-03T14:07:51Z</time>
      </trkpt>
      <trkpt lat="43.77392" lon="4.24349">
        <ele>125</ele>
        <time>2015-01-03T14:07:57Z</time>
      </trkpt>
      <trkpt lat="43.77372" lon="4.24335">
        <ele>125</ele>
        <time>2015-01-03T14:08:02Z</time>
      </trkpt>
      <trkpt lat="43.77356" lon="4.24325">
        <ele>126</ele>
        <time>2015-01-03T14:08:07Z</time>
      </trkpt>
      <trkpt lat="43.77333" lon="4.24309">
        <ele>126</ele>
        <time>2015-01-03T14:08:15Z</time>
      </trkpt>
      <trkpt lat="43.773" lon="4.24288">
        <ele>126</ele>
        <time>2015-01-03T14:08:24Z</time>
      </trkpt>
      <trkpt lat="43.77282" lon="4.24278">
        <ele>126</ele>
        <time>2015-01-03T14:08:29Z</time>
      </trkpt>
      <trkpt lat="43.77265" lon="4.24268">
        <ele>127</ele>
        <time>2015-01-03T14:08:34Z</time>
      </trkpt>
      <trkpt lat="43.77242" lon="4.24255">
        <ele>125</ele>
        <time>2015-01-03T14:08:41Z</time>
      </trkpt>
      <trkpt lat="43.77224" lon="4.24244">
        <ele>126</ele>
        <time>2015-01-03T14:08:48Z</time>
      </trkpt>
      <trkpt lat="43.77214" lon="4.24281">
        <ele>124</ele>
        <time>2015-01-03T14:08:58Z</time>
      </trkpt>
      <trkpt lat="43.77198" lon="4.24299">
        <ele>122</ele>
        <time>2015-01-03T14:09:05Z</time>
      </trkpt>
      <trkpt lat="43.77208" lon="4.24329">
        <ele>119</ele>
        <time>2015-01-03T14:09:11Z</time>
      </trkpt>
      <trkpt lat="43.77186" lon="4.24346">
        <ele>122</ele>
        <time>2015-01-03T14:09:19Z</time>
      </trkpt>
      <trkpt lat="43.77163" lon="4.24348">
        <ele>112</ele>
        <time>2015-01-03T14:09:28Z</time>
      </trkpt>
      <trkpt lat="43.77146" lon="4.24349">
        <ele>110</ele>
        <time>2015-01-03T14:09:33Z</time>
      </trkpt>
      <trkpt lat="43.77124" lon="4.24361">
        <ele>111</ele>
        <time>2015-01-03T14:09:39Z</time>
      </trkpt>
      <trkpt lat="43.7711" lon="4.24359">
        <ele>109</ele>
        <time>2015-01-03T14:09:46Z</time>
      </trkpt>
      <trkpt lat="43.77082" lon="4.24364">
        <ele>111</ele>
        <time>2015-01-03T14:09:57Z</time>
      </trkpt>
      <trkpt lat="43.77063" lon="4.2437">
        <ele>109</ele>
        <time>2015-01-03T14:10:02Z</time>
      </trkpt>
      <trkpt lat="43.77046" lon="4.24377">
        <ele>105</ele>
        <time>2015-01-03T14:10:08Z</time>
      </trkpt>
      <trkpt lat="43.77033" lon="4.24401">
        <ele>109</ele>
        <time>2015-01-03T14:10:16Z</time>
      </trkpt>
      <trkpt lat="43.7701" lon="4.24411">
        <ele>104</ele>
        <time>2015-01-03T14:10:24Z</time>
      </trkpt>
      <trkpt lat="43.76991" lon="4.24415">
        <ele>102</ele>
        <time>2015-01-03T14:10:29Z</time>
      </trkpt>
      <trkpt lat="43.76963" lon="4.24423">
        <ele>104</ele>
        <time>2015-01-03T14:10:36Z</time>
      </trkpt>
      <trkpt lat="43.76948" lon="4.24433">
        <ele>106</ele>
        <time>2015-01-03T14:10:44Z</time>
      </trkpt>
      <trkpt lat="43.76958" lon="4.24391">
        <ele>104</ele>
        <time>2015-01-03T14:10:54Z</time>
      </trkpt>
      <trkpt lat="43.76961" lon="4.24365">
        <ele>104</ele>
        <time>2015-01-03T14:10:59Z</time>
      </trkpt>
      <trkpt lat="43.76963" lon="4.24335">
        <ele>106</ele>
        <time>2015-01-03T14:11:05Z</time>
      </trkpt>
      <trkpt lat="43.76965" lon="4.24311">
        <ele>103</ele>
        <time>2015-01-03T14:11:10Z</time>
      </trkpt>
      <trkpt lat="43.76967" lon="4.24296">
        <ele>105</ele>
        <time>2015-01-03T14:11:14Z</time>
      </trkpt>
      <trkpt lat="43.76966" lon="4.24279">
        <ele>107</ele>
        <time>2015-01-03T14:11:19Z</time>
      </trkpt>
      <trkpt lat="43.76968" lon="4.24258">
        <ele>106</ele>
        <time>2015-01-03T14:11:26Z</time>
      </trkpt>
      <trkpt lat="43.76983" lon="4.24228">
        <ele>108</ele>
        <time>2015-01-03T14:11:35Z</time>
      </trkpt>
      <trkpt lat="43.76994" lon="4.24199">
        <ele>110</ele>
        <time>2015-01-03T14:11:43Z</time>
      </trkpt>
      <trkpt lat="43.77006" lon="4.24173">
        <ele>111</ele>
        <time>2015-01-03T14:11:50Z</time>
      </trkpt>
      <trkpt lat="43.77016" lon="4.24149">
        <ele>114</ele>
        <time>2015-01-03T14:11:57Z</time>
      </trkpt>
      <trkpt lat="43.77028" lon="4.24122">
        <ele>115</ele>
        <time>2015-01-03T14:12:05Z</time>
      </trkpt>
      <trkpt lat="43.77038" lon="4.24097">
        <ele>117</ele>
        <time>2015-01-03T14:12:14Z</time>
      </trkpt>
      <trkpt lat="43.77046" lon="4.24079">
        <ele>118</ele>
        <time>2015-01-03T14:12:20Z</time>
      </trkpt>
      <trkpt lat="43.77053" lon="4.24063">
        <ele>120</ele>
        <time>2015-01-03T14:12:25Z</time>
      </trkpt>
      <trkpt lat="43.7706" lon="4.24045">
        <ele>120</ele>
        <time>2015-01-03T14:12:30Z</time>
      </trkpt>
      <trkpt lat="43.77075" lon="4.24005">
        <ele>115</ele>
        <time>2015-01-03T14:12:38Z</time>
      </trkpt>
      <trkpt lat="43.77087" lon="4.23967">
        <ele>110</ele>
        <time>2015-01-03T14:12:44Z</time>
      </trkpt>
      <trkpt lat="43.77079" lon="4.23934">
        <ele>111</ele>
        <time>2015-01-03T14:12:51Z</time>
      </trkpt>
      <trkpt lat="43.7707" lon="4.23898">
        <ele>111</ele>
        <time>2015-01-03T14:12:59Z</time>
      </trkpt>
      <trkpt lat="43.77065" lon="4.23872">
        <ele>114</ele>
        <time>2015-01-03T14:13:05Z</time>
      </trkpt>
      <trkpt lat="43.7706" lon="4.23841">
        <ele>116</ele>
        <time>2015-01-03T14:13:12Z</time>
      </trkpt>
      <trkpt lat="43.77061" lon="4.2382">
        <ele>118</ele>
        <time>2015-01-03T14:13:18Z</time>
      </trkpt>
      <trkpt lat="43.77061" lon="4.23804">
        <ele>117</ele>
        <time>2015-01-03T14:13:23Z</time>
      </trkpt>
      <trkpt lat="43.77064" lon="4.23776">
        <ele>123</ele>
        <time>2015-01-03T14:13:32Z</time>
      </trkpt>
      <trkpt lat="43.77068" lon="4.23759">
        <ele>126</ele>
        <time>2015-01-03T14:13:37Z</time>
      </trkpt>
      <trkpt lat="43.77079" lon="4.23734">
        <ele>128</ele>
        <time>2015-01-03T14:13:43Z</time>
      </trkpt>
      <trkpt lat="43.77087" lon="4.23704">
        <ele>130</ele>
        <time>2015-01-03T14:13:51Z</time>
      </trkpt>
      <trkpt lat="43.7709" lon="4.23692">
        <ele>129</ele>
        <time>2015-01-03T14:13:54Z</time>
      </trkpt>
      <trkpt lat="43.77093" lon="4.23679">
        <ele>128</ele>
        <time>2015-01-03T14:13:57Z</time>
      </trkpt>
      <trkpt lat="43.77097" lon="4.23652">
        <ele>130</ele>
        <time>2015-01-03T14:14:03Z</time>
      </trkpt>
      <trkpt lat="43.77098" lon="4.23626">
        <ele>132</ele>
        <time>2015-01-03T14:14:09Z</time>
      </trkpt>
      <trkpt lat="43.77103" lon="4.23609">
        <ele>131</ele>
        <time>2015-01-03T14:14:15Z</time>
      </trkpt>
      <trkpt lat="43.77113" lon="4.2358">
        <ele>129</ele>
        <time>2015-01-03T14:14:27Z</time>
      </trkpt>
      <trkpt lat="43.77121" lon="4.23547">
        <ele>130</ele>
        <time>2015-01-03T14:14:36Z</time>
      </trkpt>
      <trkpt lat="43.77123" lon="4.23531">
        <ele>129</ele>
        <time>2015-01-03T14:14:40Z</time>
      </trkpt>
      <trkpt lat="43.77122" lon="4.23512">
        <ele>126</ele>
        <time>2015-01-03T14:14:45Z</time>
      </trkpt>
      <trkpt lat="43.7712" lon="4.23497">
        <ele>126</ele>
        <time>2015-01-03T14:14:49Z</time>
      </trkpt>
      <trkpt lat="43.77121" lon="4.23477">
        <ele>127</ele>
        <time>2015-01-03T14:14:55Z</time>
      </trkpt>
      <trkpt lat="43.77133" lon="4.23453">
        <ele>132</ele>
        <time>2015-01-03T14:15:04Z</time>
      </trkpt>
      <trkpt lat="43.77145" lon="4.23435">
        <ele>133</ele>
        <time>2015-01-03T14:15:11Z</time>
      </trkpt>
      <trkpt lat="43.7716" lon="4.23413">
        <ele>130</ele>
        <time>2015-01-03T14:15:19Z</time>
      </trkpt>
      <trkpt lat="43.77169" lon="4.23389">
        <ele>131</ele>
        <time>2015-01-03T14:15:26Z</time>
      </trkpt>
      <trkpt lat="43.7718" lon="4.23371">
        <ele>135</ele>
        <time>2015-01-03T14:15:33Z</time>
      </trkpt>
      <trkpt lat="43.77192" lon="4.23341">
        <ele>141</ele>
        <time>2015-01-03T14:15:42Z</time>
      </trkpt>
      <trkpt lat="43.77203" lon="4.23314">
        <ele>138</ele>
        <time>2015-01-03T14:15:50Z</time>
      </trkpt>
      <trkpt lat="43.77212" lon="4.23293">
        <ele>142</ele>
        <time>2015-01-03T14:15:59Z</time>
      </trkpt>
      <trkpt lat="43.772" lon="4.23267">
        <ele>143</ele>
        <time>2015-01-03T14:16:10Z</time>
      </trkpt>
      <trkpt lat="43.77183" lon="4.2325">
        <ele>143</ele>
        <time>2015-01-03T14:16:18Z</time>
      </trkpt>
      <trkpt lat="43.77168" lon="4.23229">
        <ele>144</ele>
        <time>2015-01-03T14:16:27Z</time>
      </trkpt>
      <trkpt lat="43.77155" lon="4.23216">
        <ele>139</ele>
        <time>2015-01-03T14:16:34Z</time>
      </trkpt>
      <trkpt lat="43.77147" lon="4.23193">
        <ele>136</ele>
        <time>2015-01-03T14:16:43Z</time>
      </trkpt>
      <trkpt lat="43.77155" lon="4.23166">
        <ele>133</ele>
        <time>2015-01-03T14:16:52Z</time>
      </trkpt>
      <trkpt lat="43.77155" lon="4.23144">
        <ele>137</ele>
        <time>2015-01-03T14:17:00Z</time>
      </trkpt>
      <trkpt lat="43.77147" lon="4.23127">
        <ele>135</ele>
        <time>2015-01-03T14:17:13Z</time>
      </trkpt>
      <trkpt lat="43.77126" lon="4.23129">
        <ele>137</ele>
        <time>2015-01-03T14:17:24Z</time>
      </trkpt>
      <trkpt lat="43.77113" lon="4.23132">
        <ele>138</ele>
        <time>2015-01-03T14:17:30Z</time>
      </trkpt>
      <trkpt lat="43.77099" lon="4.23135">
        <ele>138</ele>
        <time>2015-01-03T14:17:39Z</time>
      </trkpt>
      <trkpt lat="43.77076" lon="4.23144">
        <ele>137</ele>
        <time>2015-01-03T14:17:50Z</time>
      </trkpt>
      <trkpt lat="43.77058" lon="4.23144">
        <ele>137</ele>
        <time>2015-01-03T14:17:59Z</time>
      </trkpt>
      <trkpt lat="43.77056" lon="4.23149">
        <ele>136</ele>
        <time>2015-01-03T14:18:08Z</time>
      </trkpt>
      <trkpt lat="43.77053" lon="4.23169">
        <ele>145</ele>
        <time>2015-01-03T14:23:19Z</time>
      </trkpt>
      <trkpt lat="43.77045" lon="4.23189">
        <ele>144</ele>
        <time>2015-01-03T14:23:24Z</time>
      </trkpt>
      <trkpt lat="43.77036" lon="4.23215">
        <ele>143</ele>
        <time>2015-01-03T14:23:30Z</time>
      </trkpt>
      <trkpt lat="43.77018" lon="4.23242">
        <ele>140</ele>
        <time>2015-01-03T14:23:35Z</time>
      </trkpt>
      <trkpt lat="43.77005" lon="4.23276">
        <ele>142</ele>
        <time>2015-01-03T14:23:40Z</time>
      </trkpt>
      <trkpt lat="43.7699" lon="4.23287">
        <ele>141</ele>
        <time>2015-01-03T14:23:44Z</time>
      </trkpt>
      <trkpt lat="43.76951" lon="4.23296">
        <ele>141</ele>
        <time>2015-01-03T14:23:51Z</time>
      </trkpt>
      <trkpt lat="43.76924" lon="4.23312">
        <ele>135</ele>
        <time>2015-01-03T14:23:57Z</time>
      </trkpt>
      <trkpt lat="43.76895" lon="4.23337">
        <ele>138</ele>
        <time>2015-01-03T14:24:02Z</time>
      </trkpt>
      <trkpt lat="43.76864" lon="4.2336">
        <ele>135</ele>
        <time>2015-01-03T14:24:08Z</time>
      </trkpt>
      <trkpt lat="43.76829" lon="4.23366">
        <ele>134</ele>
        <time>2015-01-03T14:24:14Z</time>
      </trkpt>
      <trkpt lat="43.76785" lon="4.23372">
        <ele>135</ele>
        <time>2015-01-03T14:24:23Z</time>
      </trkpt>
      <trkpt lat="43.76768" lon="4.23402">
        <ele>133</ele>
        <time>2015-01-03T14:24:29Z</time>
      </trkpt>
      <trkpt lat="43.76747" lon="4.23374">
        <ele>133</ele>
        <time>2015-01-03T14:24:38Z</time>
      </trkpt>
      <trkpt lat="43.76736" lon="4.23346">
        <ele>131</ele>
        <time>2015-01-03T14:24:44Z</time>
      </trkpt>
      <trkpt lat="43.76716" lon="4.23343">
        <ele>134</ele>
        <time>2015-01-03T14:24:49Z</time>
      </trkpt>
      <trkpt lat="43.76694" lon="4.23346">
        <ele>132</ele>
        <time>2015-01-03T14:24:56Z</time>
      </trkpt>
      <trkpt lat="43.76674" lon="4.23325">
        <ele>130</ele>
        <time>2015-01-03T14:25:01Z</time>
      </trkpt>
      <trkpt lat="43.76649" lon="4.23302">
        <ele>130</ele>
        <time>2015-01-03T14:25:07Z</time>
      </trkpt>
      <trkpt lat="43.76632" lon="4.23295">
        <ele>130</ele>
        <time>2015-01-03T14:25:10Z</time>
      </trkpt>
      <trkpt lat="43.766" lon="4.23283">
        <ele>128</ele>
        <time>2015-01-03T14:25:16Z</time>
      </trkpt>
      <trkpt lat="43.7657" lon="4.23292">
        <ele>124</ele>
        <time>2015-01-03T14:25:21Z</time>
      </trkpt>
      <trkpt lat="43.76553" lon="4.23305">
        <ele>127</ele>
        <time>2015-01-03T14:25:24Z</time>
      </trkpt>
      <trkpt lat="43.76536" lon="4.2332">
        <ele>126</ele>
        <time>2015-01-03T14:25:27Z</time>
      </trkpt>
      <trkpt lat="43.76503" lon="4.23334">
        <ele>125</ele>
        <time>2015-01-03T14:25:33Z</time>
      </trkpt>
      <trkpt lat="43.76474" lon="4.23354">
        <ele>123</ele>
        <time>2015-01-03T14:25:39Z</time>
      </trkpt>
      <trkpt lat="43.76446" lon="4.2337">
        <ele>122</ele>
        <time>2015-01-03T14:25:44Z</time>
      </trkpt>
      <trkpt lat="43.76412" lon="4.23395">
        <ele>120</ele>
        <time>2015-01-03T14:25:50Z</time>
      </trkpt>
      <trkpt lat="43.76382" lon="4.23421">
        <ele>120</ele>
        <time>2015-01-03T14:25:56Z</time>
      </trkpt>
      <trkpt lat="43.76362" lon="4.23404">
        <ele>120</ele>
        <time>2015-01-03T14:26:03Z</time>
      </trkpt>
      <trkpt lat="43.76352" lon="4.23367">
        <ele>120</ele>
        <time>2015-01-03T14:26:10Z</time>
      </trkpt>
      <trkpt lat="43.76358" lon="4.23335">
        <ele>119</ele>
        <time>2015-01-03T14:26:15Z</time>
      </trkpt>
      <trkpt lat="43.7637" lon="4.23304">
        <ele>118</ele>
        <time>2015-01-03T14:26:20Z</time>
      </trkpt>
      <trkpt lat="43.76377" lon="4.23285">
        <ele>118</ele>
        <time>2015-01-03T14:26:23Z</time>
      </trkpt>
      <trkpt lat="43.76388" lon="4.23245">
        <ele>115</ele>
        <time>2015-01-03T14:26:30Z</time>
      </trkpt>
      <trkpt lat="43.7639" lon="4.23205">
        <ele>119</ele>
        <time>2015-01-03T14:26:37Z</time>
      </trkpt>
      <trkpt lat="43.76386" lon="4.23174">
        <ele>123</ele>
        <time>2015-01-03T14:26:44Z</time>
      </trkpt>
      <trkpt lat="43.76385" lon="4.2315">
        <ele>122</ele>
        <time>2015-01-03T14:26:49Z</time>
      </trkpt>
      <trkpt lat="43.7639" lon="4.23115">
        <ele>124</ele>
        <time>2015-01-03T14:26:56Z</time>
      </trkpt>
      <trkpt lat="43.76388" lon="4.23103">
        <ele>126</ele>
        <time>2015-01-03T14:27:02Z</time>
      </trkpt>
      <trkpt lat="43.76339" lon="4.2311">
        <ele>124</ele>
        <time>2015-01-03T14:27:17Z</time>
      </trkpt>
      <trkpt lat="43.76321" lon="4.23119">
        <ele>125</ele>
        <time>2015-01-03T14:27:22Z</time>
      </trkpt>
      <trkpt lat="43.76298" lon="4.23141">
        <ele>124</ele>
        <time>2015-01-03T14:27:29Z</time>
      </trkpt>
      <trkpt lat="43.76286" lon="4.23133">
        <ele>126</ele>
        <time>2015-01-03T14:27:39Z</time>
      </trkpt>
      <trkpt lat="43.76278" lon="4.23103">
        <ele>126</ele>
        <time>2015-01-03T14:27:44Z</time>
      </trkpt>
      <trkpt lat="43.76271" lon="4.23074">
        <ele>125</ele>
        <time>2015-01-03T14:27:49Z</time>
      </trkpt>
      <trkpt lat="43.76261" lon="4.23046">
        <ele>126</ele>
        <time>2015-01-03T14:27:55Z</time>
      </trkpt>
      <trkpt lat="43.7625" lon="4.23009">
        <ele>126</ele>
        <time>2015-01-03T14:28:02Z</time>
      </trkpt>
      <trkpt lat="43.76242" lon="4.22978">
        <ele>128</ele>
        <time>2015-01-03T14:28:08Z</time>
      </trkpt>
      <trkpt lat="43.7623" lon="4.22938">
        <ele>126</ele>
        <time>2015-01-03T14:28:15Z</time>
      </trkpt>
      <trkpt lat="43.76222" lon="4.22911">
        <ele>126</ele>
        <time>2015-01-03T14:28:20Z</time>
      </trkpt>
      <trkpt lat="43.76214" lon="4.22885">
        <ele>125</ele>
        <time>2015-01-03T14:28:26Z</time>
      </trkpt>
      <trkpt lat="43.76241" lon="4.22891">
        <ele>127</ele>
        <time>2015-01-03T14:28:36Z</time>
      </trkpt>
      <trkpt lat="43.7626" lon="4.22895">
        <ele>127</ele>
        <time>2015-01-03T14:28:41Z</time>
      </trkpt>
      <trkpt lat="43.76278" lon="4.22899">
        <ele>129</ele>
        <time>2015-01-03T14:28:47Z</time>
      </trkpt>
      <trkpt lat="43.763" lon="4.22904">
        <ele>129</ele>
        <time>2015-01-03T14:28:55Z</time>
      </trkpt>
      <trkpt lat="43.76324" lon="4.22915">
        <ele>129</ele>
        <time>2015-01-03T14:29:04Z</time>
      </trkpt>
      <trkpt lat="43.76337" lon="4.22924">
        <ele>127</ele>
        <time>2015-01-03T14:29:09Z</time>
      </trkpt>
      <trkpt lat="43.76355" lon="4.22939">
        <ele>127</ele>
        <time>2015-01-03T14:29:16Z</time>
      </trkpt>
      <trkpt lat="43.76376" lon="4.22948">
        <ele>128</ele>
        <time>2015-01-03T14:29:26Z</time>
      </trkpt>
      <trkpt lat="43.764" lon="4.22923">
        <ele>130</ele>
        <time>2015-01-03T14:29:39Z</time>
      </trkpt>
      <trkpt lat="43.76416" lon="4.22903">
        <ele>129</ele>
        <time>2015-01-03T14:29:46Z</time>
      </trkpt>
      <trkpt lat="43.76433" lon="4.22874">
        <ele>129</ele>
        <time>2015-01-03T14:29:53Z</time>
      </trkpt>
      <trkpt lat="43.76452" lon="4.2284">
        <ele>126</ele>
        <time>2015-01-03T14:30:00Z</time>
      </trkpt>
      <trkpt lat="43.7647" lon="4.22796">
        <ele>126</ele>
        <time>2015-01-03T14:30:07Z</time>
      </trkpt>
      <trkpt lat="43.7649" lon="4.22779">
        <ele>128</ele>
        <time>2015-01-03T14:30:12Z</time>
      </trkpt>
      <trkpt lat="43.76509" lon="4.22754">
        <ele>131</ele>
        <time>2015-01-03T14:30:18Z</time>
      </trkpt>
      <trkpt lat="43.76522" lon="4.22747">
        <ele>132</ele>
        <time>2015-01-03T14:30:23Z</time>
      </trkpt>
      <trkpt lat="43.76542" lon="4.2276">
        <ele>129</ele>
        <time>2015-01-03T14:30:32Z</time>
      </trkpt>
      <trkpt lat="43.76567" lon="4.22741">
        <ele>133</ele>
        <time>2015-01-03T14:30:40Z</time>
      </trkpt>
      <trkpt lat="43.76592" lon="4.22715">
        <ele>131</ele>
        <time>2015-01-03T14:30:47Z</time>
      </trkpt>
      <trkpt lat="43.76615" lon="4.22699">
        <ele>135</ele>
        <time>2015-01-03T14:30:54Z</time>
      </trkpt>
      <trkpt lat="43.7664" lon="4.22697">
        <ele>136</ele>
        <time>2015-01-03T14:31:01Z</time>
      </trkpt>
      <trkpt lat="43.76662" lon="4.22688">
        <ele>139</ele>
        <time>2015-01-03T14:31:07Z</time>
      </trkpt>
      <trkpt lat="43.76677" lon="4.22675">
        <ele>145</ele>
        <time>2015-01-03T14:31:12Z</time>
      </trkpt>
      <trkpt lat="43.76702" lon="4.22655">
        <ele>147</ele>
        <time>2015-01-03T14:31:20Z</time>
      </trkpt>
      <trkpt lat="43.76709" lon="4.2267">
        <ele>136</ele>
        <time>2015-01-03T14:31:26Z</time>
      </trkpt>
      <trkpt lat="43.76748" lon="4.22666">
        <ele>130</ele>
        <time>2015-01-03T14:31:35Z</time>
      </trkpt>
      <trkpt lat="43.76767" lon="4.22658">
        <ele>131</ele>
        <time>2015-01-03T14:31:41Z</time>
      </trkpt>
      <trkpt lat="43.76782" lon="4.22654">
        <ele>130</ele>
        <time>2015-01-03T14:31:48Z</time>
      </trkpt>
      <trkpt lat="43.76803" lon="4.22659">
        <ele>131</ele>
        <time>2015-01-03T14:31:53Z</time>
      </trkpt>
      <trkpt lat="43.76818" lon="4.22656">
        <ele>132</ele>
        <time>2015-01-03T14:31:58Z</time>
      </trkpt>
      <trkpt lat="43.76834" lon="4.22658">
        <ele>131</ele>
        <time>2015-01-03T14:32:05Z</time>
      </trkpt>
      <trkpt lat="43.76852" lon="4.22652">
        <ele>128</ele>
        <time>2015-01-03T14:32:11Z</time>
      </trkpt>
      <trkpt lat="43.76877" lon="4.22652">
        <ele>128</ele>
        <time>2015-01-03T14:32:17Z</time>
      </trkpt>
      <trkpt lat="43.769" lon="4.2265">
        <ele>127</ele>
        <time>2015-01-03T14:32:23Z</time>
      </trkpt>
      <trkpt lat="43.76943" lon="4.22616">
        <ele>126</ele>
        <time>2015-01-03T14:32:32Z</time>
      </trkpt>
      <trkpt lat="43.76968" lon="4.22623">
        <ele>128</ele>
        <time>2015-01-03T14:32:38Z</time>
      </trkpt>
      <trkpt lat="43.76997" lon="4.22635">
        <ele>125</ele>
        <time>2015-01-03T14:32:45Z</time>
      </trkpt>
      <trkpt lat="43.77016" lon="4.22657">
        <ele>125</ele>
        <time>2015-01-03T14:32:50Z</time>
      </trkpt>
      <trkpt lat="43.77037" lon="4.22692">
        <ele>113</ele>
        <time>2015-01-03T14:32:56Z</time>
      </trkpt>
      <trkpt lat="43.77049" lon="4.22716">
        <ele>110</ele>
        <time>2015-01-03T14:33:01Z</time>
      </trkpt>
      <trkpt lat="43.77063" lon="4.2275">
        <ele>108</ele>
        <time>2015-01-03T14:33:07Z</time>
      </trkpt>
      <trkpt lat="43.77074" lon="4.22777">
        <ele>118</ele>
        <time>2015-01-03T14:33:12Z</time>
      </trkpt>
      <trkpt lat="43.77092" lon="4.22814">
        <ele>119</ele>
        <time>2015-01-03T14:33:19Z</time>
      </trkpt>
      <trkpt lat="43.77114" lon="4.22841">
        <ele>116</ele>
        <time>2015-01-03T14:33:26Z</time>
      </trkpt>
      <trkpt lat="43.77126" lon="4.22865">
        <ele>117</ele>
        <time>2015-01-03T14:33:31Z</time>
      </trkpt>
      <trkpt lat="43.7714" lon="4.22901">
        <ele>117</ele>
        <time>2015-01-03T14:33:39Z</time>
      </trkpt>
      <trkpt lat="43.77158" lon="4.22917">
        <ele>116</ele>
        <time>2015-01-03T14:33:45Z</time>
      </trkpt>
      <trkpt lat="43.77181" lon="4.22937">
        <ele>115</ele>
        <time>2015-01-03T14:33:52Z</time>
      </trkpt>
      <trkpt lat="43.77195" lon="4.22955">
        <ele>105</ele>
        <time>2015-01-03T14:33:59Z</time>
      </trkpt>
      <trkpt lat="43.77203" lon="4.2298">
        <ele>102</ele>
        <time>2015-01-03T14:34:06Z</time>
      </trkpt>
      <trkpt lat="43.77215" lon="4.23003">
        <ele>100</ele>
        <time>2015-01-03T14:34:14Z</time>
      </trkpt>
      <trkpt lat="43.77232" lon="4.23025">
        <ele>104</ele>
        <time>2015-01-03T14:34:22Z</time>
      </trkpt>
      <trkpt lat="43.77247" lon="4.2305">
        <ele>107</ele>
        <time>2015-01-03T14:34:30Z</time>
      </trkpt>
      <trkpt lat="43.7726" lon="4.23077">
        <ele>109</ele>
        <time>2015-01-03T14:34:38Z</time>
      </trkpt>
      <trkpt lat="43.77274" lon="4.23098">
        <ele>110</ele>
        <time>2015-01-03T14:34:45Z</time>
      </trkpt>
      <trkpt lat="43.77281" lon="4.23107">
        <ele>111</ele>
        <time>2015-01-03T14:34:49Z</time>
      </trkpt>
      <trkpt lat="43.773" lon="4.23126">
        <ele>109</ele>
        <time>2015-01-03T14:34:58Z</time>
      </trkpt>
      <trkpt lat="43.77311" lon="4.23137">
        <ele>109</ele>
        <time>2015-01-03T14:35:03Z</time>
      </trkpt>
      <trkpt lat="43.7733" lon="4.23159">
        <ele>107</ele>
        <time>2015-01-03T14:35:11Z</time>
      </trkpt>
      <trkpt lat="43.77343" lon="4.2318">
        <ele>107</ele>
        <time>2015-01-03T14:35:17Z</time>
      </trkpt>
      <trkpt lat="43.77355" lon="4.23196">
        <ele>106</ele>
        <time>2015-01-03T14:35:22Z</time>
      </trkpt>
      <trkpt lat="43.77361" lon="4.23206">
        <ele>106</ele>
        <time>2015-01-03T14:35:25Z</time>
      </trkpt>
      <trkpt lat="43.77373" lon="4.23221">
        <ele>105</ele>
        <time>2015-01-03T14:35:30Z</time>
      </trkpt>
      <trkpt lat="43.7739" lon="4.23253">
        <ele>108</ele>
        <time>2015-01-03T14:35:37Z</time>
      </trkpt>
      <trkpt lat="43.77405" lon="4.23281">
        <ele>110</ele>
        <time>2015-01-03T14:35:43Z</time>
      </trkpt>
      <trkpt lat="43.77412" lon="4.23296">
        <ele>108</ele>
        <time>2015-01-03T14:35:50Z</time>
      </trkpt>
      <trkpt lat="43.77415" lon="4.23306">
        <ele>110</ele>
        <time>2015-01-03T14:35:59Z</time>
      </trkpt>
      <trkpt lat="43.77422" lon="4.23327">
        <ele>112</ele>
        <time>2015-01-03T14:36:04Z</time>
      </trkpt>
      <trkpt lat="43.77434" lon="4.23359">
        <ele>114</ele>
        <time>2015-01-03T14:36:11Z</time>
      </trkpt>
      <trkpt lat="43.77448" lon="4.23384">
        <ele>109</ele>
        <time>2015-01-03T14:36:17Z</time>
      </trkpt>
      <trkpt lat="43.77454" lon="4.23412">
        <ele>108</ele>
        <time>2015-01-03T14:36:22Z</time>
      </trkpt>
      <trkpt lat="43.77446" lon="4.23443">
        <ele>111</ele>
        <time>2015-01-03T14:36:29Z</time>
      </trkpt>
      <trkpt lat="43.77429" lon="4.23471">
        <ele>111</ele>
        <time>2015-01-03T14:36:36Z</time>
      </trkpt>
      <trkpt lat="43.77405" lon="4.23495">
        <ele>110</ele>
        <time>2015-01-03T14:36:43Z</time>
      </trkpt>
      <trkpt lat="43.77389" lon="4.23516">
        <ele>110</ele>
        <time>2015-01-03T14:36:48Z</time>
      </trkpt>
      <trkpt lat="43.77374" lon="4.23539">
        <ele>108</ele>
        <time>2015-01-03T14:36:53Z</time>
      </trkpt>
      <trkpt lat="43.77356" lon="4.23571">
        <ele>109</ele>
        <time>2015-01-03T14:36:59Z</time>
      </trkpt>
      <trkpt lat="43.77339" lon="4.23599">
        <ele>108</ele>
        <time>2015-01-03T14:37:05Z</time>
      </trkpt>
      <trkpt lat="43.7733" lon="4.23616">
        <ele>108</ele>
        <time>2015-01-03T14:37:08Z</time>
      </trkpt>
      <trkpt lat="43.77311" lon="4.23649">
        <ele>107</ele>
        <time>2015-01-03T14:37:14Z</time>
      </trkpt>
      <trkpt lat="43.77302" lon="4.23664">
        <ele>106</ele>
        <time>2015-01-03T14:37:17Z</time>
      </trkpt>
      <trkpt lat="43.77293" lon="4.23679">
        <ele>106</ele>
        <time>2015-01-03T14:37:20Z</time>
      </trkpt>
      <trkpt lat="43.77278" lon="4.23706">
        <ele>107</ele>
        <time>2015-01-03T14:37:25Z</time>
      </trkpt>
      <trkpt lat="43.77266" lon="4.23733">
        <ele>108</ele>
        <time>2015-01-03T14:37:30Z</time>
      </trkpt>
      <trkpt lat="43.77259" lon="4.23749">
        <ele>108</ele>
        <time>2015-01-03T14:37:33Z</time>
      </trkpt>
      <trkpt lat="43.77246" lon="4.23777">
        <ele>107</ele>
        <time>2015-01-03T14:37:38Z</time>
      </trkpt>
      <trkpt lat="43.77231" lon="4.2381">
        <ele>105</ele>
        <time>2015-01-03T14:37:44Z</time>
      </trkpt>
      <trkpt lat="43.77217" lon="4.23834">
        <ele>105</ele>
        <time>2015-01-03T14:37:49Z</time>
      </trkpt>
      <trkpt lat="43.77198" lon="4.23866">
        <ele>112</ele>
        <time>2015-01-03T14:37:56Z</time>
      </trkpt>
      <trkpt lat="43.77185" lon="4.23882">
        <ele>115</ele>
        <time>2015-01-03T14:38:01Z</time>
      </trkpt>
      <trkpt lat="43.77162" lon="4.2389">
        <ele>109</ele>
        <time>2015-01-03T14:38:10Z</time>
      </trkpt>
      <trkpt lat="43.77139" lon="4.23904">
        <ele>111</ele>
        <time>2015-01-03T14:38:19Z</time>
      </trkpt>
      <trkpt lat="43.77128" lon="4.23918">
        <ele>113</ele>
        <time>2015-01-03T14:38:24Z</time>
      </trkpt>
      <trkpt lat="43.77118" lon="4.23934">
        <ele>115</ele>
        <time>2015-01-03T14:38:29Z</time>
      </trkpt>
      <trkpt lat="43.77109" lon="4.23948">
        <ele>116</ele>
        <time>2015-01-03T14:38:33Z</time>
      </trkpt>
      <trkpt lat="43.77103" lon="4.23958">
        <ele>116</ele>
        <time>2015-01-03T14:38:36Z</time>
      </trkpt>
      <trkpt lat="43.77088" lon="4.23981">
        <ele>118</ele>
        <time>2015-01-03T14:38:44Z</time>
      </trkpt>
      <trkpt lat="43.77079" lon="4.23995">
        <ele>119</ele>
        <time>2015-01-03T14:38:49Z</time>
      </trkpt>
      <trkpt lat="43.77062" lon="4.24026">
        <ele>119</ele>
        <time>2015-01-03T14:38:59Z</time>
      </trkpt>
      <trkpt lat="43.77052" lon="4.24048">
        <ele>118</ele>
        <time>2015-01-03T14:39:06Z</time>
      </trkpt>
      <trkpt lat="43.77045" lon="4.24063">
        <ele>118</ele>
        <time>2015-01-03T14:39:14Z</time>
      </trkpt>
      <trkpt lat="43.77028" lon="4.24102">
        <ele>120</ele>
        <time>2015-01-03T14:39:29Z</time>
      </trkpt>
      <trkpt lat="43.77038" lon="4.24126">
        <ele>121</ele>
        <time>2015-01-03T14:39:37Z</time>
      </trkpt>
      <trkpt lat="43.77054" lon="4.24136">
        <ele>120</ele>
        <time>2015-01-03T14:39:45Z</time>
      </trkpt>
      <trkpt lat="43.77061" lon="4.2414">
        <ele>121</ele>
        <time>2015-01-03T14:39:48Z</time>
      </trkpt>
      <trkpt lat="43.7708" lon="4.24154">
        <ele>118</ele>
        <time>2015-01-03T14:39:57Z</time>
      </trkpt>
      <trkpt lat="43.77099" lon="4.24167">
        <ele>119</ele>
        <time>2015-01-03T14:40:05Z</time>
      </trkpt>
      <trkpt lat="43.77115" lon="4.24182">
        <ele>128</ele>
        <time>2015-01-03T14:40:12Z</time>
      </trkpt>
      <trkpt lat="43.77139" lon="4.24201">
        <ele>125</ele>
        <time>2015-01-03T14:40:21Z</time>
      </trkpt>
      <trkpt lat="43.77151" lon="4.24207">
        <ele>125</ele>
        <time>2015-01-03T14:40:26Z</time>
      </trkpt>
      <trkpt lat="43.77161" lon="4.2421">
        <ele>121</ele>
        <time>2015-01-03T14:40:31Z</time>
      </trkpt>
      <trkpt lat="43.77175" lon="4.24221">
        <ele>123</ele>
        <time>2015-01-03T14:40:38Z</time>
      </trkpt>
      <trkpt lat="43.77195" lon="4.24233">
        <ele>118</ele>
        <time>2015-01-03T14:40:48Z</time>
      </trkpt>
      <trkpt lat="43.77204" lon="4.2424">
        <ele>124</ele>
        <time>2015-01-03T14:41:00Z</time>
      </trkpt>
      <trkpt lat="43.77204" lon="4.2424">
        <ele>124</ele>
        <time>2015-01-03T14:41:07Z</time>
      </trkpt>
      <trkpt lat="43.77204" lon="4.2424">
        <ele>124</ele>
        <time>2015-01-03T14:41:08Z</time>
      </trkpt>
      <trkpt lat="43.77217" lon="4.24225">
        <ele>134</ele>
        <time>2015-01-03T14:42:11Z</time>
      </trkpt>
      <trkpt lat="43.77234" lon="4.24204">
        <ele>138</ele>
        <time>2015-01-03T14:42:21Z</time>
      </trkpt>
      <trkpt lat="43.77246" lon="4.24183">
        <ele>134</ele>
        <time>2015-01-03T14:42:29Z</time>
      </trkpt>
      <trkpt lat="43.77252" lon="4.24171">
        <ele>138</ele>
        <time>2015-01-03T14:42:33Z</time>
      </trkpt>
      <trkpt lat="43.77261" lon="4.24158">
        <ele>137</ele>
        <time>2015-01-03T14:42:38Z</time>
      </trkpt>
      <trkpt lat="43.77266" lon="4.24146">
        <ele>137</ele>
        <time>2015-01-03T14:42:42Z</time>
      </trkpt>
      <trkpt lat="43.77271" lon="4.24135">
        <ele>137</ele>
        <time>2015-01-03T14:42:46Z</time>
      </trkpt>
      <trkpt lat="43.77283" lon="4.24117">
        <ele>138</ele>
        <time>2015-01-03T14:42:54Z</time>
      </trkpt>
      <trkpt lat="43.77297" lon="4.24106">
        <ele>139</ele>
        <time>2015-01-03T14:43:01Z</time>
      </trkpt>
      <trkpt lat="43.7731" lon="4.24099">
        <ele>141</ele>
        <time>2015-01-03T14:43:08Z</time>
      </trkpt>
      <trkpt lat="43.77323" lon="4.24087">
        <ele>142</ele>
        <time>2015-01-03T14:43:14Z</time>
      </trkpt>
      <trkpt lat="43.77342" lon="4.24069">
        <ele>142</ele>
        <time>2015-01-03T14:43:23Z</time>
      </trkpt>
      <trkpt lat="43.77353" lon="4.24063">
        <ele>146</ele>
        <time>2015-01-03T14:43:28Z</time>
      </trkpt>
      <trkpt lat="43.77368" lon="4.2406">
        <ele>144</ele>
        <time>2015-01-03T14:43:35Z</time>
      </trkpt>
      <trkpt lat="43.77387" lon="4.24059">
        <ele>146</ele>
        <time>2015-01-03T14:43:44Z</time>
      </trkpt>
      <trkpt lat="43.77406" lon="4.24059">
        <ele>145</ele>
        <time>2015-01-03T14:43:52Z</time>
      </trkpt>
      <trkpt lat="43.77431" lon="4.24076">
        <ele>143</ele>
        <time>2015-01-03T14:44:01Z</time>
      </trkpt>
      <trkpt lat="43.77448" lon="4.24087">
        <ele>136</ele>
        <time>2015-01-03T14:44:06Z</time>
      </trkpt>
      <trkpt lat="43.77474" lon="4.24091">
        <ele>138</ele>
        <time>2015-01-03T14:44:13Z</time>
      </trkpt>
      <trkpt lat="43.77495" lon="4.2409">
        <ele>138</ele>
        <time>2015-01-03T14:44:19Z</time>
      </trkpt>
      <trkpt lat="43.77515" lon="4.24094">
        <ele>141</ele>
        <time>2015-01-03T14:44:25Z</time>
      </trkpt>
      <trkpt lat="43.77526" lon="4.24071">
        <ele>146</ele>
        <time>2015-01-03T14:44:33Z</time>
      </trkpt>
      <trkpt lat="43.77534" lon="4.24052">
        <ele>143</ele>
        <time>2015-01-03T14:44:38Z</time>
      </trkpt>
      <trkpt lat="43.77548" lon="4.24061">
        <ele>139</ele>
        <time>2015-01-03T14:44:43Z</time>
      </trkpt>
      <trkpt lat="43.77571" lon="4.24075">
        <ele>139</ele>
        <time>2015-01-03T14:44:51Z</time>
      </trkpt>
      <trkpt lat="43.77592" lon="4.24087">
        <ele>143</ele>
        <time>2015-01-03T14:44:57Z</time>
      </trkpt>
      <trkpt lat="43.77613" lon="4.24098">
        <ele>143</ele>
        <time>2015-01-03T14:45:03Z</time>
      </trkpt>
      <trkpt lat="43.77629" lon="4.24121">
        <ele>140</ele>
        <time>2015-01-03T14:45:10Z</time>
      </trkpt>
      <trkpt lat="43.77655" lon="4.24136">
        <ele>137</ele>
        <time>2015-01-03T14:45:17Z</time>
      </trkpt>
      <trkpt lat="43.77673" lon="4.24149">
        <ele>137</ele>
        <time>2015-01-03T14:45:22Z</time>
      </trkpt>
      <trkpt lat="43.77692" lon="4.2416">
        <ele>137</ele>
        <time>2015-01-03T14:45:26Z</time>
      </trkpt>
      <trkpt lat="43.77724" lon="4.24183">
        <ele>137</ele>
        <time>2015-01-03T14:45:33Z</time>
      </trkpt>
      <trkpt lat="43.77737" lon="4.24204">
        <ele>139</ele>
        <time>2015-01-03T14:45:38Z</time>
      </trkpt>
      <trkpt lat="43.77761" lon="4.24219">
        <ele>139</ele>
        <time>2015-01-03T14:45:43Z</time>
      </trkpt>
      <trkpt lat="43.77781" lon="4.24228">
        <ele>136</ele>
        <time>2015-01-03T14:45:48Z</time>
      </trkpt>
      <trkpt lat="43.77805" lon="4.24231">
        <ele>140</ele>
        <time>2015-01-03T14:45:55Z</time>
      </trkpt>
      <trkpt lat="43.77831" lon="4.24246">
        <ele>143</ele>
        <time>2015-01-03T14:46:02Z</time>
      </trkpt>
      <trkpt lat="43.77854" lon="4.24271">
        <ele>140</ele>
        <time>2015-01-03T14:46:10Z</time>
      </trkpt>
      <trkpt lat="43.77859" lon="4.24293">
        <ele>139</ele>
        <time>2015-01-03T14:46:17Z</time>
      </trkpt>
      <trkpt lat="43.77855" lon="4.24306">
        <ele>139</ele>
        <time>2015-01-03T14:46:23Z</time>
      </trkpt>
      <trkpt lat="43.77834" lon="4.24318">
        <ele>140</ele>
        <time>2015-01-03T14:46:31Z</time>
      </trkpt>
      <trkpt lat="43.77821" lon="4.24328">
        <ele>140</ele>
        <time>2015-01-03T14:46:36Z</time>
      </trkpt>
      <trkpt lat="43.77801" lon="4.24347">
        <ele>138</ele>
        <time>2015-01-03T14:46:44Z</time>
      </trkpt>
      <trkpt lat="43.77784" lon="4.2436">
        <ele>138</ele>
        <time>2015-01-03T14:46:50Z</time>
      </trkpt>
      <trkpt lat="43.77758" lon="4.24342">
        <ele>138</ele>
        <time>2015-01-03T14:46:57Z</time>
      </trkpt>
      <trkpt lat="43.77741" lon="4.24345">
        <ele>140</ele>
        <time>2015-01-03T14:47:02Z</time>
      </trkpt>
      <trkpt lat="43.77719" lon="4.24354">
        <ele>141</ele>
        <time>2015-01-03T14:47:07Z</time>
      </trkpt>
      <trkpt lat="43.77704" lon="4.24356">
        <ele>140</ele>
        <time>2015-01-03T14:47:10Z</time>
      </trkpt>
      <trkpt lat="43.77686" lon="4.24387">
        <ele>139</ele>
        <time>2015-01-03T14:47:16Z</time>
      </trkpt>
      <trkpt lat="43.77665" lon="4.24407">
        <ele>136</ele>
        <time>2015-01-03T14:47:21Z</time>
      </trkpt>
      <trkpt lat="43.77636" lon="4.24432">
        <ele>134</ele>
        <time>2015-01-03T14:47:27Z</time>
      </trkpt>
      <trkpt lat="43.77624" lon="4.24449">
        <ele>134</ele>
        <time>2015-01-03T14:47:30Z</time>
      </trkpt>
      <trkpt lat="43.77611" lon="4.24466">
        <ele>133</ele>
        <time>2015-01-03T14:47:33Z</time>
      </trkpt>
      <trkpt lat="43.77606" lon="4.24491">
        <ele>132</ele>
        <time>2015-01-03T14:47:39Z</time>
      </trkpt>
      <trkpt lat="43.77627" lon="4.24515">
        <ele>131</ele>
        <time>2015-01-03T14:47:45Z</time>
      </trkpt>
      <trkpt lat="43.77649" lon="4.24541">
        <ele>131</ele>
        <time>2015-01-03T14:47:51Z</time>
      </trkpt>
      <trkpt lat="43.7767" lon="4.24566">
        <ele>131</ele>
        <time>2015-01-03T14:47:57Z</time>
      </trkpt>
      <trkpt lat="43.77694" lon="4.24593">
        <ele>131</ele>
        <time>2015-01-03T14:48:03Z</time>
      </trkpt>
      <trkpt lat="43.77714" lon="4.24616">
        <ele>130</ele>
        <time>2015-01-03T14:48:08Z</time>
      </trkpt>
      <trkpt lat="43.77737" lon="4.24645">
        <ele>129</ele>
        <time>2015-01-03T14:48:14Z</time>
      </trkpt>
      <trkpt lat="43.77749" lon="4.24657">
        <ele>131</ele>
        <time>2015-01-03T14:48:17Z</time>
      </trkpt>
      <trkpt lat="43.77776" lon="4.2469">
        <ele>129</ele>
        <time>2015-01-03T14:48:24Z</time>
      </trkpt>
      <trkpt lat="43.77796" lon="4.24722">
        <ele>129</ele>
        <time>2015-01-03T14:48:30Z</time>
      </trkpt>
      <trkpt lat="43.77815" lon="4.24754">
        <ele>129</ele>
        <time>2015-01-03T14:48:36Z</time>
      </trkpt>
      <trkpt lat="43.7783" lon="4.24784">
        <ele>128</ele>
        <time>2015-01-03T14:48:41Z</time>
      </trkpt>
      <trkpt lat="43.77841" lon="4.24809">
        <ele>128</ele>
        <time>2015-01-03T14:48:45Z</time>
      </trkpt>
      <trkpt lat="43.77856" lon="4.24836">
        <ele>129</ele>
        <time>2015-01-03T14:48:50Z</time>
      </trkpt>
      <trkpt lat="43.77876" lon="4.24867">
        <ele>127</ele>
        <time>2015-01-03T14:48:56Z</time>
      </trkpt>
      <trkpt lat="43.77893" lon="4.24895">
        <ele>126</ele>
        <time>2015-01-03T14:49:01Z</time>
      </trkpt>
      <trkpt lat="43.77911" lon="4.24931">
        <ele>126</ele>
        <time>2015-01-03T14:49:07Z</time>
      </trkpt>
      <trkpt lat="43.77929" lon="4.24968">
        <ele>127</ele>
        <time>2015-01-03T14:49:13Z</time>
      </trkpt>
      <trkpt lat="43.77943" lon="4.24995">
        <ele>129</ele>
        <time>2015-01-03T14:49:18Z</time>
      </trkpt>
      <trkpt lat="43.77953" lon="4.25011">
        <ele>129</ele>
        <time>2015-01-03T14:49:21Z</time>
      </trkpt>
      <trkpt lat="43.77975" lon="4.25032">
        <ele>129</ele>
        <time>2015-01-03T14:49:27Z</time>
      </trkpt>
      <trkpt lat="43.77996" lon="4.25051">
        <ele>129</ele>
        <time>2015-01-03T14:49:33Z</time>
      </trkpt>
      <trkpt lat="43.7801" lon="4.25077">
        <ele>128</ele>
        <time>2015-01-03T14:49:39Z</time>
      </trkpt>
      <trkpt lat="43.78021" lon="4.251">
        <ele>128</ele>
        <time>2015-01-03T14:49:45Z</time>
      </trkpt>
      <trkpt lat="43.78035" lon="4.25129">
        <ele>128</ele>
        <time>2015-01-03T14:49:52Z</time>
      </trkpt>
      <trkpt lat="43.78041" lon="4.25139">
        <ele>128</ele>
        <time>2015-01-03T14:49:55Z</time>
      </trkpt>
      <trkpt lat="43.78055" lon="4.25156">
        <ele>128</ele>
        <time>2015-01-03T14:50:02Z</time>
      </trkpt>
      <trkpt lat="43.78072" lon="4.25175">
        <ele>129</ele>
        <time>2015-01-03T14:50:09Z</time>
      </trkpt>
      <trkpt lat="43.78088" lon="4.25188">
        <ele>131</ele>
        <time>2015-01-03T14:50:17Z</time>
      </trkpt>
      <trkpt lat="43.78101" lon="4.25197">
        <ele>132</ele>
        <time>2015-01-03T14:50:23Z</time>
      </trkpt>
      <trkpt lat="43.78118" lon="4.25224">
        <ele>133</ele>
        <time>2015-01-03T14:50:32Z</time>
      </trkpt>
      <trkpt lat="43.78125" lon="4.25237">
        <ele>132</ele>
        <time>2015-01-03T14:50:36Z</time>
      </trkpt>
      <trkpt lat="43.78134" lon="4.25265">
        <ele>133</ele>
        <time>2015-01-03T14:50:44Z</time>
      </trkpt>
      <trkpt lat="43.78135" lon="4.25286">
        <ele>133</ele>
        <time>2015-01-03T14:50:50Z</time>
      </trkpt>
      <trkpt lat="43.78128" lon="4.25323">
        <ele>131</ele>
        <time>2015-01-03T14:50:59Z</time>
      </trkpt>
      <trkpt lat="43.78126" lon="4.2535">
        <ele>130</ele>
        <time>2015-01-03T14:51:04Z</time>
      </trkpt>
      <trkpt lat="43.78127" lon="4.25384">
        <ele>130</ele>
        <time>2015-01-03T14:51:11Z</time>
      </trkpt>
      <trkpt lat="43.78126" lon="4.25417">
        <ele>130</ele>
        <time>2015-01-03T14:51:18Z</time>
      </trkpt>
      <trkpt lat="43.78125" lon="4.25436">
        <ele>133</ele>
        <time>2015-01-03T14:51:22Z</time>
      </trkpt>
      <trkpt lat="43.78124" lon="4.25452">
        <ele>131</ele>
        <time>2015-01-03T14:51:25Z</time>
      </trkpt>
      <trkpt lat="43.78119" lon="4.25483">
        <ele>131</ele>
        <time>2015-01-03T14:51:31Z</time>
      </trkpt>
      <trkpt lat="43.78108" lon="4.25515">
        <ele>134</ele>
        <time>2015-01-03T14:51:39Z</time>
      </trkpt>
      <trkpt lat="43.78089" lon="4.2554">
        <ele>134</ele>
        <time>2015-01-03T14:51:47Z</time>
      </trkpt>
      <trkpt lat="43.78075" lon="4.25554">
        <ele>138</ele>
        <time>2015-01-03T14:51:55Z</time>
      </trkpt>
      <trkpt lat="43.78081" lon="4.25589">
        <ele>137</ele>
        <time>2015-01-03T14:52:10Z</time>
      </trkpt>
      <trkpt lat="43.78082" lon="4.25618">
        <ele>141</ele>
        <time>2015-01-03T14:52:21Z</time>
      </trkpt>
      <trkpt lat="43.7807" lon="4.25638">
        <ele>140</ele>
        <time>2015-01-03T14:52:31Z</time>
      </trkpt>
      <trkpt lat="43.78058" lon="4.25653">
        <ele>141</ele>
        <time>2015-01-03T14:52:39Z</time>
      </trkpt>
      <trkpt lat="43.78058" lon="4.25666">
        <ele>142</ele>
        <time>2015-01-03T14:52:48Z</time>
      </trkpt>
      <trkpt lat="43.78059" lon="4.25687">
        <ele>146</ele>
        <time>2015-01-03T14:53:01Z</time>
      </trkpt>
      <trkpt lat="43.78082" lon="4.25701">
        <ele>146</ele>
        <time>2015-01-03T14:53:11Z</time>
      </trkpt>
      <trkpt lat="43.78088" lon="4.25721">
        <ele>144</ele>
        <time>2015-01-03T14:53:17Z</time>
      </trkpt>
      <trkpt lat="43.78098" lon="4.25741">
        <ele>145</ele>
        <time>2015-01-03T14:53:25Z</time>
      </trkpt>
      <trkpt lat="43.78098" lon="4.25741">
        <ele>145</ele>
        <time>2015-01-03T14:53:31Z</time>
      </trkpt>
      <trkpt lat="43.78098" lon="4.25741">
        <ele>145</ele>
        <time>2015-01-03T14:53:32Z</time>
      </trkpt>
      <trkpt lat="43.78107" lon="4.25763">
        <ele>143</ele>
        <time>2015-01-03T14:55:09Z</time>
      </trkpt>
      <trkpt lat="43.78112" lon="4.25766">
        <ele>143</ele>
        <time>2015-01-03T14:55:12Z</time>
      </trkpt>
      <trkpt lat="43.78119" lon="4.25741">
        <ele>142</ele>
        <time>2015-01-03T14:55:21Z</time>
      </trkpt>
      <trkpt lat="43.78129" lon="4.25736">
        <ele>145</ele>
        <time>2015-01-03T14:55:26Z</time>
      </trkpt>
      <trkpt lat="43.78142" lon="4.25753">
        <ele>143</ele>
        <time>2015-01-03T14:55:36Z</time>
      </trkpt>
      <trkpt lat="43.78157" lon="4.25755">
        <ele>143</ele>
        <time>2015-01-03T14:55:44Z</time>
      </trkpt>
      <trkpt lat="43.78169" lon="4.25782">
        <ele>144</ele>
        <time>2015-01-03T14:55:55Z</time>
      </trkpt>
      <trkpt lat="43.78163" lon="4.25795">
        <ele>148</ele>
        <time>2015-01-03T14:56:01Z</time>
      </trkpt>
      <trkpt lat="43.78163" lon="4.25795">
        <ele>148</ele>
        <time>2015-01-03T14:56:07Z</time>
      </trkpt>
      <trkpt lat="43.78163" lon="4.25795">
        <ele>148</ele>
        <time>2015-01-03T14:56:08Z</time>
      </trkpt>
      <trkpt lat="43.78168" lon="4.25817">
        <ele>146</ele>
        <time>2015-01-03T14:56:15Z</time>
      </trkpt>
      <trkpt lat="43.7817" lon="4.25841">
        <ele>148</ele>
        <time>2015-01-03T14:56:26Z</time>
      </trkpt>
      <trkpt lat="43.78165" lon="4.25869">
        <ele>146</ele>
        <time>2015-01-03T14:56:34Z</time>
      </trkpt>
      <trkpt lat="43.78164" lon="4.25863">
        <ele>147</ele>
        <time>2015-01-03T14:56:41Z</time>
      </trkpt>
      <trkpt lat="43.78142" lon="4.25853">
        <ele>147</ele>
        <time>2015-01-03T14:56:54Z</time>
      </trkpt>
      <trkpt lat="43.78124" lon="4.2585">
        <ele>146</ele>
        <time>2015-01-03T14:57:00Z</time>
      </trkpt>
      <trkpt lat="43.78126" lon="4.25864">
        <ele>147</ele>
        <time>2015-01-03T14:57:06Z</time>
      </trkpt>
      <trkpt lat="43.78138" lon="4.25893">
        <ele>148</ele>
        <time>2015-01-03T14:57:15Z</time>
      </trkpt>
      <trkpt lat="43.78144" lon="4.25916">
        <ele>145</ele>
        <time>2015-01-03T14:57:24Z</time>
      </trkpt>
      <trkpt lat="43.78129" lon="4.25928">
        <ele>143</ele>
        <time>2015-01-03T14:57:33Z</time>
      </trkpt>
      <trkpt lat="43.78123" lon="4.25932">
        <ele>143</ele>
        <time>2015-01-03T14:57:36Z</time>
      </trkpt>
      <trkpt lat="43.78122" lon="4.25934">
        <ele>140</ele>
        <time>2015-01-03T14:57:42Z</time>
      </trkpt>
      <trkpt lat="43.78101" lon="4.25931">
        <ele>140</ele>
        <time>2015-01-03T14:58:34Z</time>
      </trkpt>
      <trkpt lat="43.78079" lon="4.25951">
        <ele>140</ele>
        <time>2015-01-03T14:58:43Z</time>
      </trkpt>
      <trkpt lat="43.78057" lon="4.25972">
        <ele>145</ele>
        <time>2015-01-03T14:58:51Z</time>
      </trkpt>
      <trkpt lat="43.78057" lon="4.26007">
        <ele>140</ele>
        <time>2015-01-03T14:58:59Z</time>
      </trkpt>
      <trkpt lat="43.78039" lon="4.26042">
        <ele>142</ele>
        <time>2015-01-03T14:59:07Z</time>
      </trkpt>
      <trkpt lat="43.78027" lon="4.26069">
        <ele>139</ele>
        <time>2015-01-03T14:59:13Z</time>
      </trkpt>
      <trkpt lat="43.78008" lon="4.26112">
        <ele>133</ele>
        <time>2015-01-03T14:59:19Z</time>
      </trkpt>
      <trkpt lat="43.77986" lon="4.26143">
        <ele>130</ele>
        <time>2015-01-03T14:59:24Z</time>
      </trkpt>
      <trkpt lat="43.77955" lon="4.26177">
        <ele>124</ele>
        <time>2015-01-03T14:59:30Z</time>
      </trkpt>
      <trkpt lat="43.7793" lon="4.26187">
        <ele>120</ele>
        <time>2015-01-03T14:59:35Z</time>
      </trkpt>
      <trkpt lat="43.77904" lon="4.26187">
        <ele>119</ele>
        <time>2015-01-03T14:59:39Z</time>
      </trkpt>
      <trkpt lat="43.77876" lon="4.26185">
        <ele>119</ele>
        <time>2015-01-03T14:59:45Z</time>
      </trkpt>
      <trkpt lat="43.77858" lon="4.26187">
        <ele>116</ele>
        <time>2015-01-03T14:59:52Z</time>
      </trkpt>
      <trkpt lat="43.77821" lon="4.26201">
        <ele>116</ele>
        <time>2015-01-03T15:00:02Z</time>
      </trkpt>
      <trkpt lat="43.77799" lon="4.26239">
        <ele>112</ele>
        <time>2015-01-03T15:00:08Z</time>
      </trkpt>
      <trkpt lat="43.77778" lon="4.26263">
        <ele>110</ele>
        <time>2015-01-03T15:00:13Z</time>
      </trkpt>
      <trkpt lat="43.77752" lon="4.26284">
        <ele>108</ele>
        <time>2015-01-03T15:00:18Z</time>
      </trkpt>
      <trkpt lat="43.77713" lon="4.26299">
        <ele>111</ele>
        <time>2015-01-03T15:00:25Z</time>
      </trkpt>
      <trkpt lat="43.77676" lon="4.26295">
        <ele>111</ele>
        <time>2015-01-03T15:00:31Z</time>
      </trkpt>
      <trkpt lat="43.7766" lon="4.2629">
        <ele>107</ele>
        <time>2015-01-03T15:00:34Z</time>
      </trkpt>
      <trkpt lat="43.77625" lon="4.26275">
        <ele>104</ele>
        <time>2015-01-03T15:00:41Z</time>
      </trkpt>
      <trkpt lat="43.77589" lon="4.26259">
        <ele>103</ele>
        <time>2015-01-03T15:00:48Z</time>
      </trkpt>
      <trkpt lat="43.77557" lon="4.26247">
        <ele>103</ele>
        <time>2015-01-03T15:00:54Z</time>
      </trkpt>
      <trkpt lat="43.77528" lon="4.26238">
        <ele>101</ele>
        <time>2015-01-03T15:00:59Z</time>
      </trkpt>
      <trkpt lat="43.775" lon="4.26235">
        <ele>103</ele>
        <time>2015-01-03T15:01:04Z</time>
      </trkpt>
      <trkpt lat="43.77491" lon="4.26234">
        <ele>103</ele>
        <time>2015-01-03T15:01:07Z</time>
      </trkpt>
      <trkpt lat="43.77489" lon="4.26234">
        <ele>104</ele>
        <time>2015-01-03T15:01:14Z</time>
      </trkpt>
      <trkpt lat="43.77479" lon="4.26253">
        <ele>104</ele>
        <time>2015-01-03T15:01:34Z</time>
      </trkpt>
      <trkpt lat="43.77455" lon="4.26258">
        <ele>104</ele>
        <time>2015-01-03T15:01:39Z</time>
      </trkpt>
      <trkpt lat="43.77434" lon="4.26259">
        <ele>104</ele>
        <time>2015-01-03T15:01:44Z</time>
      </trkpt>
      <trkpt lat="43.77403" lon="4.2626">
        <ele>100</ele>
        <time>2015-01-03T15:01:52Z</time>
      </trkpt>
      <trkpt lat="43.77354" lon="4.26281">
        <ele>97</ele>
        <time>2015-01-03T15:02:00Z</time>
      </trkpt>
      <trkpt lat="43.77323" lon="4.26292">
        <ele>96</ele>
        <time>2015-01-03T15:02:05Z</time>
      </trkpt>
      <trkpt lat="43.77293" lon="4.26303">
        <ele>94</ele>
        <time>2015-01-03T15:02:10Z</time>
      </trkpt>
      <trkpt lat="43.77257" lon="4.26324">
        <ele>93</ele>
        <time>2015-01-03T15:02:16Z</time>
      </trkpt>
      <trkpt lat="43.77239" lon="4.26336">
        <ele>92</ele>
        <time>2015-01-03T15:02:19Z</time>
      </trkpt>
      <trkpt lat="43.77215" lon="4.26346">
        <ele>93</ele>
        <time>2015-01-03T15:02:24Z</time>
      </trkpt>
      <trkpt lat="43.77196" lon="4.26369">
        <ele>91</ele>
        <time>2015-01-03T15:02:29Z</time>
      </trkpt>
      <trkpt lat="43.77166" lon="4.26393">
        <ele>110</ele>
        <time>2015-01-03T15:02:35Z</time>
      </trkpt>
      <trkpt lat="43.77136" lon="4.26417">
        <ele>109</ele>
        <time>2015-01-03T15:02:41Z</time>
      </trkpt>
      <trkpt lat="43.77106" lon="4.26443">
        <ele>109</ele>
        <time>2015-01-03T15:02:47Z</time>
      </trkpt>
      <trkpt lat="43.7708" lon="4.2646">
        <ele>114</ele>
        <time>2015-01-03T15:02:52Z</time>
      </trkpt>
      <trkpt lat="43.77053" lon="4.26474">
        <ele>110</ele>
        <time>2015-01-03T15:02:57Z</time>
      </trkpt>
      <trkpt lat="43.77021" lon="4.26499">
        <ele>109</ele>
        <time>2015-01-03T15:03:03Z</time>
      </trkpt>
      <trkpt lat="43.76998" lon="4.2653">
        <ele>96</ele>
        <time>2015-01-03T15:03:08Z</time>
      </trkpt>
      <trkpt lat="43.76978" lon="4.2656">
        <ele>95</ele>
        <time>2015-01-03T15:03:13Z</time>
      </trkpt>
      <trkpt lat="43.76956" lon="4.26598">
        <ele>90</ele>
        <time>2015-01-03T15:03:19Z</time>
      </trkpt>
      <trkpt lat="43.76948" lon="4.26624">
        <ele>87</ele>
        <time>2015-01-03T15:03:22Z</time>
      </trkpt>
      <trkpt lat="43.76945" lon="4.26683">
        <ele>86</ele>
        <time>2015-01-03T15:03:29Z</time>
      </trkpt>
      <trkpt lat="43.76944" lon="4.26726">
        <ele>85</ele>
        <time>2015-01-03T15:03:34Z</time>
      </trkpt>
      <trkpt lat="43.76943" lon="4.26768">
        <ele>86</ele>
        <time>2015-01-03T15:03:40Z</time>
      </trkpt>
      <trkpt lat="43.76942" lon="4.26795">
        <ele>85</ele>
        <time>2015-01-03T15:03:45Z</time>
      </trkpt>
      <trkpt lat="43.76943" lon="4.2684">
        <ele>85</ele>
        <time>2015-01-03T15:03:52Z</time>
      </trkpt>
      <trkpt lat="43.76944" lon="4.26876">
        <ele>83</ele>
        <time>2015-01-03T15:03:57Z</time>
      </trkpt>
      <trkpt lat="43.76946" lon="4.26908">
        <ele>83</ele>
        <time>2015-01-03T15:04:01Z</time>
      </trkpt>
      <trkpt lat="43.76943" lon="4.26954">
        <ele>82</ele>
        <time>2015-01-03T15:04:07Z</time>
      </trkpt>
      <trkpt lat="43.7694" lon="4.27006">
        <ele>83</ele>
        <time>2015-01-03T15:04:13Z</time>
      </trkpt>
      <trkpt lat="43.76939" lon="4.2705">
        <ele>82</ele>
        <time>2015-01-03T15:04:18Z</time>
      </trkpt>
      <trkpt lat="43.76938" lon="4.27092">
        <ele>81</ele>
        <time>2015-01-03T15:04:23Z</time>
      </trkpt>
      <trkpt lat="43.76939" lon="4.27146">
        <ele>79</ele>
        <time>2015-01-03T15:04:29Z</time>
      </trkpt>
      <trkpt lat="43.7694" lon="4.27175">
        <ele>78</ele>
        <time>2015-01-03T15:04:32Z</time>
      </trkpt>
      <trkpt lat="43.76926" lon="4.27202">
        <ele>78</ele>
        <time>2015-01-03T15:04:38Z</time>
      </trkpt>
      <trkpt lat="43.7693" lon="4.27244">
        <ele>79</ele>
        <time>2015-01-03T15:04:45Z</time>
      </trkpt>
      <trkpt lat="43.7694" lon="4.27274">
        <ele>78</ele>
        <time>2015-01-03T15:04:51Z</time>
      </trkpt>
      <trkpt lat="43.76955" lon="4.27307">
        <ele>79</ele>
        <time>2015-01-03T15:04:58Z</time>
      </trkpt>
      <trkpt lat="43.76967" lon="4.27332">
        <ele>94</ele>
        <time>2015-01-03T15:05:04Z</time>
      </trkpt>
      <trkpt lat="43.76972" lon="4.27347">
        <ele>82</ele>
        <time>2015-01-03T15:05:09Z</time>
      </trkpt>
      <trkpt lat="43.76954" lon="4.27376">
        <ele>81</ele>
        <time>2015-01-03T15:05:21Z</time>
      </trkpt>
      <trkpt lat="43.76922" lon="4.27405">
        <ele>75</ele>
        <time>2015-01-03T15:05:30Z</time>
      </trkpt>
      <trkpt lat="43.76917" lon="4.27436">
        <ele>76</ele>
        <time>2015-01-03T15:05:36Z</time>
      </trkpt>
      <trkpt lat="43.76916" lon="4.27454">
        <ele>76</ele>
        <time>2015-01-03T15:05:39Z</time>
      </trkpt>
      <trkpt lat="43.76914" lon="4.27483">
        <ele>76</ele>
        <time>2015-01-03T15:05:44Z</time>
      </trkpt>
      <trkpt lat="43.76913" lon="4.27503">
        <ele>75</ele>
        <time>2015-01-03T15:05:47Z</time>
      </trkpt>
      <trkpt lat="43.76911" lon="4.27521">
        <ele>74</ele>
        <time>2015-01-03T15:05:50Z</time>
      </trkpt>
      <trkpt lat="43.76908" lon="4.27559">
        <ele>74</ele>
        <time>2015-01-03T15:05:56Z</time>
      </trkpt>
      <trkpt lat="43.76898" lon="4.27606">
        <ele>72</ele>
        <time>2015-01-03T15:06:03Z</time>
      </trkpt>
      <trkpt lat="43.76886" lon="4.27639">
        <ele>71</ele>
        <time>2015-01-03T15:06:08Z</time>
      </trkpt>
      <trkpt lat="43.76872" lon="4.27679">
        <ele>70</ele>
        <time>2015-01-03T15:06:14Z</time>
      </trkpt>
      <trkpt lat="43.76864" lon="4.27724">
        <ele>71</ele>
        <time>2015-01-03T15:06:20Z</time>
      </trkpt>
      <trkpt lat="43.76861" lon="4.27762">
        <ele>72</ele>
        <time>2015-01-03T15:06:26Z</time>
      </trkpt>
      <trkpt lat="43.76852" lon="4.27795">
        <ele>73</ele>
        <time>2015-01-03T15:06:32Z</time>
      </trkpt>
      <trkpt lat="43.76832" lon="4.27799">
        <ele>72</ele>
        <time>2015-01-03T15:06:38Z</time>
      </trkpt>
      <trkpt lat="43.76811" lon="4.27805">
        <ele>75</ele>
        <time>2015-01-03T15:06:45Z</time>
      </trkpt>
      <trkpt lat="43.7678" lon="4.27809">
        <ele>73</ele>
        <time>2015-01-03T15:06:52Z</time>
      </trkpt>
      <trkpt lat="43.76763" lon="4.27833">
        <ele>71</ele>
        <time>2015-01-03T15:06:57Z</time>
      </trkpt>
      <trkpt lat="43.76763" lon="4.27869">
        <ele>70</ele>
        <time>2015-01-03T15:07:02Z</time>
      </trkpt>
      <trkpt lat="43.76777" lon="4.27907">
        <ele>72</ele>
        <time>2015-01-03T15:07:08Z</time>
      </trkpt>
      <trkpt lat="43.7679" lon="4.27942">
        <ele>70</ele>
        <time>2015-01-03T15:07:14Z</time>
      </trkpt>
      <trkpt lat="43.76783" lon="4.27981">
        <ele>68</ele>
        <time>2015-01-03T15:07:21Z</time>
      </trkpt>
      <trkpt lat="43.76764" lon="4.28">
        <ele>67</ele>
        <time>2015-01-03T15:07:26Z</time>
      </trkpt>
      <trkpt lat="43.76769" lon="4.28034">
        <ele>69</ele>
        <time>2015-01-03T15:07:32Z</time>
      </trkpt>
      <trkpt lat="43.76783" lon="4.28064">
        <ele>69</ele>
        <time>2015-01-03T15:07:38Z</time>
      </trkpt>
      <trkpt lat="43.76782" lon="4.2808">
        <ele>74</ele>
        <time>2015-01-03T15:07:45Z</time>
      </trkpt>
      <trkpt lat="43.76759" lon="4.281">
        <ele>74</ele>
        <time>2015-01-03T15:07:51Z</time>
      </trkpt>
      <trkpt lat="43.76741" lon="4.28115">
        <ele>77</ele>
        <time>2015-01-03T15:07:56Z</time>
      </trkpt>
      <trkpt lat="43.76718" lon="4.28137">
        <ele>76</ele>
        <time>2015-01-03T15:08:02Z</time>
      </trkpt>
      <trkpt lat="43.767" lon="4.2816">
        <ele>75</ele>
        <time>2015-01-03T15:08:07Z</time>
      </trkpt>
      <trkpt lat="43.76676" lon="4.28181">
        <ele>75</ele>
        <time>2015-01-03T15:08:12Z</time>
      </trkpt>
      <trkpt lat="43.76646" lon="4.28205">
        <ele>76</ele>
        <time>2015-01-03T15:08:20Z</time>
      </trkpt>
      <trkpt lat="43.76655" lon="4.28233">
        <ele>73</ele>
        <time>2015-01-03T15:08:26Z</time>
      </trkpt>
      <trkpt lat="43.76676" lon="4.28257">
        <ele>71</ele>
        <time>2015-01-03T15:08:32Z</time>
      </trkpt>
      <trkpt lat="43.76699" lon="4.28283">
        <ele>68</ele>
        <time>2015-01-03T15:08:38Z</time>
      </trkpt>
      <trkpt lat="43.76719" lon="4.2831">
        <ele>71</ele>
        <time>2015-01-03T15:08:44Z</time>
      </trkpt>
      <trkpt lat="43.76737" lon="4.28333">
        <ele>69</ele>
        <time>2015-01-03T15:08:49Z</time>
      </trkpt>
      <trkpt lat="43.76748" lon="4.28347">
        <ele>68</ele>
        <time>2015-01-03T15:08:52Z</time>
      </trkpt>
      <trkpt lat="43.76758" lon="4.28361">
        <ele>69</ele>
        <time>2015-01-03T15:08:55Z</time>
      </trkpt>
      <trkpt lat="43.76781" lon="4.28389">
        <ele>66</ele>
        <time>2015-01-03T15:09:01Z</time>
      </trkpt>
      <trkpt lat="43.76803" lon="4.28415">
        <ele>66</ele>
        <time>2015-01-03T15:09:07Z</time>
      </trkpt>
      <trkpt lat="43.76821" lon="4.28442">
        <ele>69</ele>
        <time>2015-01-03T15:09:13Z</time>
      </trkpt>
      <trkpt lat="43.76832" lon="4.28474">
        <ele>68</ele>
        <time>2015-01-03T15:09:20Z</time>
      </trkpt>
      <trkpt lat="43.76844" lon="4.28508">
        <ele>68</ele>
        <time>2015-01-03T15:09:26Z</time>
      </trkpt>
      <trkpt lat="43.76857" lon="4.28549">
        <ele>68</ele>
        <time>2015-01-03T15:09:33Z</time>
      </trkpt>
      <trkpt lat="43.7687" lon="4.28583">
        <ele>68</ele>
        <time>2015-01-03T15:09:39Z</time>
      </trkpt>
      <trkpt lat="43.76881" lon="4.28618">
        <ele>69</ele>
        <time>2015-01-03T15:09:45Z</time>
      </trkpt>
      <trkpt lat="43.76886" lon="4.28656">
        <ele>68</ele>
        <time>2015-01-03T15:09:51Z</time>
      </trkpt>
      <trkpt lat="43.76859" lon="4.28673">
        <ele>69</ele>
        <time>2015-01-03T15:09:57Z</time>
      </trkpt>
      <trkpt lat="43.76847" lon="4.28688">
        <ele>67</ele>
        <time>2015-01-03T15:10:02Z</time>
      </trkpt>
      <trkpt lat="43.76857" lon="4.28707">
        <ele>69</ele>
        <time>2015-01-03T15:10:08Z</time>
      </trkpt>
      <trkpt lat="43.76876" lon="4.28727">
        <ele>64</ele>
        <time>2015-01-03T15:10:14Z</time>
      </trkpt>
      <trkpt lat="43.7689" lon="4.28733">
        <ele>63</ele>
        <time>2015-01-03T15:10:22Z</time>
      </trkpt>
      <trkpt lat="43.76921" lon="4.28712">
        <ele>69</ele>
        <time>2015-01-03T15:10:30Z</time>
      </trkpt>
      <trkpt lat="43.76944" lon="4.28702">
        <ele>70</ele>
        <time>2015-01-03T15:10:36Z</time>
      </trkpt>
      <trkpt lat="43.7698" lon="4.28676">
        <ele>73</ele>
        <time>2015-01-03T15:10:43Z</time>
      </trkpt>
      <trkpt lat="43.77011" lon="4.28661">
        <ele>72</ele>
        <time>2015-01-03T15:10:49Z</time>
      </trkpt>
      <trkpt lat="43.77041" lon="4.28641">
        <ele>72</ele>
        <time>2015-01-03T15:10:55Z</time>
      </trkpt>
      <trkpt lat="43.77068" lon="4.28623">
        <ele>75</ele>
        <time>2015-01-03T15:11:01Z</time>
      </trkpt>
      <trkpt lat="43.7709" lon="4.28618">
        <ele>76</ele>
        <time>2015-01-03T15:11:07Z</time>
      </trkpt>
      <trkpt lat="43.771" lon="4.28641">
        <ele>73</ele>
        <time>2015-01-03T15:11:12Z</time>
      </trkpt>
      <trkpt lat="43.77113" lon="4.28669">
        <ele>72</ele>
        <time>2015-01-03T15:11:19Z</time>
      </trkpt>
      <trkpt lat="43.77116" lon="4.28674">
        <ele>72</ele>
        <time>2015-01-03T15:11:22Z</time>
      </trkpt>
      <trkpt lat="43.77115" lon="4.28672">
        <ele>72</ele>
        <time>2015-01-03T15:11:29Z</time>
      </trkpt>
      <trkpt lat="43.77115" lon="4.28672">
        <ele>25</ele>
        <time>2015-01-03T15:12:25Z</time>
      </trkpt>
      <trkpt lat="43.77115" lon="4.28672">
        <ele>25</ele>
        <time>2015-01-03T15:12:28Z</time>
      </trkpt>
    </trkseg>
  </trk>
</gpx>